<?xml version="1.0" encoding="UTF-8" standalone="no" ?>
<gpx xmlns="http://www.topografix.com/GPX/1/1" xmlns:xsi="http://www.w3.org/2001/XMLSchema-instance" xsi:schemaLocation="http://www.topografix.com/GPX/1/1 http://www.topografix.com/GPX/1/1/gpx.xsd" version="1.1" creator="VisuGPX - https://www.visugpx.com">
  <metadata>
    <name>Sortie VTT boucle Cléry</name>
    <desc><![CDATA[Petit tour pour se chauffer.... entre Vezillon - Bouaffle et Cléry]]></desc>
  </metadata>
  <trk>
    <name><![CDATA[2sept 2009 on GPSies.com]]></name>
    <trkseg>
      <trkpt lat="49.22543" lon="1.39958">
        <ele>27.054321</ele>
        <time>2009-09-02T13:19:52Z</time>
      </trkpt>
      <trkpt lat="49.22545" lon="1.3996">
        <ele>25.131713</ele>
        <time>2009-09-02T13:19:53Z</time>
      </trkpt>
      <trkpt lat="49.22552" lon="1.39964">
        <ele>25.131713</ele>
        <time>2009-09-02T13:19:55Z</time>
      </trkpt>
      <trkpt lat="49.22559" lon="1.39947">
        <ele>23.689575</ele>
        <time>2009-09-02T13:19:59Z</time>
      </trkpt>
      <trkpt lat="49.22561" lon="1.39941">
        <ele>23.208984</ele>
        <time>2009-09-02T13:20:00Z</time>
      </trkpt>
      <trkpt lat="49.22572" lon="1.39889">
        <ele>19.84436</ele>
        <time>2009-09-02T13:20:06Z</time>
      </trkpt>
      <trkpt lat="49.22582" lon="1.39851">
        <ele>18.883056</ele>
        <time>2009-09-02T13:20:10Z</time>
      </trkpt>
      <trkpt lat="49.22607" lon="1.39742">
        <ele>15.999023</ele>
        <time>2009-09-02T13:20:21Z</time>
      </trkpt>
      <trkpt lat="49.22623" lon="1.39703">
        <ele>16.479736</ele>
        <time>2009-09-02T13:20:27Z</time>
      </trkpt>
      <trkpt lat="49.22627" lon="1.39689">
        <ele>15.999023</ele>
        <time>2009-09-02T13:20:29Z</time>
      </trkpt>
      <trkpt lat="49.22634" lon="1.39662">
        <ele>13.115112</ele>
        <time>2009-09-02T13:20:33Z</time>
      </trkpt>
      <trkpt lat="49.22641" lon="1.39642">
        <ele>10.231201</ele>
        <time>2009-09-02T13:20:36Z</time>
      </trkpt>
      <trkpt lat="49.22656" lon="1.39623">
        <ele>6.8664551</ele>
        <time>2009-09-02T13:20:40Z</time>
      </trkpt>
      <trkpt lat="49.22682" lon="1.39597">
        <ele>7.8278809</ele>
        <time>2009-09-02T13:20:46Z</time>
      </trkpt>
      <trkpt lat="49.22697" lon="1.39563">
        <ele>6.8664551</ele>
        <time>2009-09-02T13:20:52Z</time>
      </trkpt>
      <trkpt lat="49.22692" lon="1.39542">
        <ele>11.673217</ele>
        <time>2009-09-02T13:20:56Z</time>
      </trkpt>
      <trkpt lat="49.22677" lon="1.39531">
        <ele>12.634399</ele>
        <time>2009-09-02T13:21:00Z</time>
      </trkpt>
      <trkpt lat="49.22668" lon="1.39521">
        <ele>15.037719</ele>
        <time>2009-09-02T13:21:03Z</time>
      </trkpt>
      <trkpt lat="49.2266" lon="1.39515">
        <ele>12.153808</ele>
        <time>2009-09-02T13:21:05Z</time>
      </trkpt>
      <trkpt lat="49.22637" lon="1.39494">
        <ele>7.8278809</ele>
        <time>2009-09-02T13:21:11Z</time>
      </trkpt>
      <trkpt lat="49.22629" lon="1.39489">
        <ele>7.347168</ele>
        <time>2009-09-02T13:21:13Z</time>
      </trkpt>
      <trkpt lat="49.22605" lon="1.39464">
        <ele>5.4245605</ele>
        <time>2009-09-02T13:21:19Z</time>
      </trkpt>
      <trkpt lat="49.22601" lon="1.39461">
        <ele>4.9438477</ele>
        <time>2009-09-02T13:21:20Z</time>
      </trkpt>
      <trkpt lat="49.22583" lon="1.39438">
        <ele>3.5019531</ele>
        <time>2009-09-02T13:21:26Z</time>
      </trkpt>
      <trkpt lat="49.22563" lon="1.39411">
        <ele>4.9438477</ele>
        <time>2009-09-02T13:21:33Z</time>
      </trkpt>
      <trkpt lat="49.2255" lon="1.39395">
        <ele>5.9052734</ele>
        <time>2009-09-02T13:21:38Z</time>
      </trkpt>
      <trkpt lat="49.22531" lon="1.39368">
        <ele>10.231201</ele>
        <time>2009-09-02T13:21:45Z</time>
      </trkpt>
      <trkpt lat="49.22516" lon="1.39348">
        <ele>13.595825</ele>
        <time>2009-09-02T13:21:50Z</time>
      </trkpt>
      <trkpt lat="49.22509" lon="1.3934">
        <ele>14.557006</ele>
        <time>2009-09-02T13:21:52Z</time>
      </trkpt>
      <trkpt lat="49.2249" lon="1.39318">
        <ele>16.479736</ele>
        <time>2009-09-02T13:21:58Z</time>
      </trkpt>
      <trkpt lat="49.22487" lon="1.39314">
        <ele>16.479736</ele>
        <time>2009-09-02T13:21:59Z</time>
      </trkpt>
      <trkpt lat="49.22462" lon="1.39285">
        <ele>15.037719</ele>
        <time>2009-09-02T13:22:07Z</time>
      </trkpt>
      <trkpt lat="49.22446" lon="1.39264">
        <ele>14.076416</ele>
        <time>2009-09-02T13:22:12Z</time>
      </trkpt>
      <trkpt lat="49.22416" lon="1.39224">
        <ele>14.076416</ele>
        <time>2009-09-02T13:22:21Z</time>
      </trkpt>
      <trkpt lat="49.22399" lon="1.39206">
        <ele>16.479736</ele>
        <time>2009-09-02T13:22:26Z</time>
      </trkpt>
      <trkpt lat="49.22373" lon="1.39173">
        <ele>14.557006</ele>
        <time>2009-09-02T13:22:34Z</time>
      </trkpt>
      <trkpt lat="49.2236" lon="1.39158">
        <ele>15.518432</ele>
        <time>2009-09-02T13:22:38Z</time>
      </trkpt>
      <trkpt lat="49.22338" lon="1.39131">
        <ele>14.557006</ele>
        <time>2009-09-02T13:22:45Z</time>
      </trkpt>
      <trkpt lat="49.22317" lon="1.39108">
        <ele>14.076416</ele>
        <time>2009-09-02T13:22:51Z</time>
      </trkpt>
      <trkpt lat="49.2231" lon="1.39099">
        <ele>14.076416</ele>
        <time>2009-09-02T13:22:53Z</time>
      </trkpt>
      <trkpt lat="49.223" lon="1.391">
        <ele>12.153808</ele>
        <time>2009-09-02T13:22:57Z</time>
      </trkpt>
      <trkpt lat="49.22285" lon="1.3911">
        <ele>14.557006</ele>
        <time>2009-09-02T13:23:01Z</time>
      </trkpt>
      <trkpt lat="49.22281" lon="1.39109">
        <ele>14.076416</ele>
        <time>2009-09-02T13:23:02Z</time>
      </trkpt>
      <trkpt lat="49.22248" lon="1.39106">
        <ele>12.153808</ele>
        <time>2009-09-02T13:23:10Z</time>
      </trkpt>
      <trkpt lat="49.22244" lon="1.39107">
        <ele>12.153808</ele>
        <time>2009-09-02T13:23:11Z</time>
      </trkpt>
      <trkpt lat="49.22233" lon="1.39123">
        <ele>13.595825</ele>
        <time>2009-09-02T13:23:15Z</time>
      </trkpt>
      <trkpt lat="49.22216" lon="1.39172">
        <ele>12.634399</ele>
        <time>2009-09-02T13:23:22Z</time>
      </trkpt>
      <trkpt lat="49.22193" lon="1.39237">
        <ele>11.673217</ele>
        <time>2009-09-02T13:23:30Z</time>
      </trkpt>
      <trkpt lat="49.22172" lon="1.39297">
        <ele>5.9052734</ele>
        <time>2009-09-02T13:23:38Z</time>
      </trkpt>
      <trkpt lat="49.22152" lon="1.3936">
        <ele>3.982666</ele>
        <time>2009-09-02T13:23:45Z</time>
      </trkpt>
      <trkpt lat="49.22125" lon="1.39431">
        <ele>9.7506104</ele>
        <time>2009-09-02T13:23:53Z</time>
      </trkpt>
      <trkpt lat="49.22122" lon="1.39439">
        <ele>11.192504</ele>
        <time>2009-09-02T13:23:54Z</time>
      </trkpt>
      <trkpt lat="49.22109" lon="1.39449">
        <ele>11.673217</ele>
        <time>2009-09-02T13:23:58Z</time>
      </trkpt>
      <trkpt lat="49.22101" lon="1.39443">
        <ele>11.673217</ele>
        <time>2009-09-02T13:24:00Z</time>
      </trkpt>
      <trkpt lat="49.22064" lon="1.39401">
        <ele>10.711792</ele>
        <time>2009-09-02T13:24:08Z</time>
      </trkpt>
      <trkpt lat="49.22026" lon="1.39359">
        <ele>11.192504</ele>
        <time>2009-09-02T13:24:16Z</time>
      </trkpt>
      <trkpt lat="49.22001" lon="1.39322">
        <ele>9.2698975</ele>
        <time>2009-09-02T13:24:22Z</time>
      </trkpt>
      <trkpt lat="49.21967" lon="1.39263">
        <ele>8.7891846</ele>
        <time>2009-09-02T13:24:31Z</time>
      </trkpt>
      <trkpt lat="49.21951" lon="1.39263">
        <ele>7.8278809</ele>
        <time>2009-09-02T13:24:35Z</time>
      </trkpt>
      <trkpt lat="49.21945" lon="1.39276">
        <ele>8.3085938</ele>
        <time>2009-09-02T13:24:37Z</time>
      </trkpt>
      <trkpt lat="49.21907" lon="1.39346">
        <ele>15.518432</ele>
        <time>2009-09-02T13:24:46Z</time>
      </trkpt>
      <trkpt lat="49.21886" lon="1.39381">
        <ele>15.999023</ele>
        <time>2009-09-02T13:24:51Z</time>
      </trkpt>
      <trkpt lat="49.21887" lon="1.39401">
        <ele>16.479736</ele>
        <time>2009-09-02T13:24:55Z</time>
      </trkpt>
      <trkpt lat="49.21894" lon="1.3941">
        <ele>15.999023</ele>
        <time>2009-09-02T13:24:57Z</time>
      </trkpt>
      <trkpt lat="49.2191" lon="1.39433">
        <ele>16.479736</ele>
        <time>2009-09-02T13:25:01Z</time>
      </trkpt>
      <trkpt lat="49.21925" lon="1.39481">
        <ele>17.921752</ele>
        <time>2009-09-02T13:25:07Z</time>
      </trkpt>
      <trkpt lat="49.21928" lon="1.39506">
        <ele>15.518432</ele>
        <time>2009-09-02T13:25:10Z</time>
      </trkpt>
      <trkpt lat="49.21929" lon="1.39548">
        <ele>17.921752</ele>
        <time>2009-09-02T13:25:15Z</time>
      </trkpt>
      <trkpt lat="49.2192" lon="1.39559">
        <ele>16.960449</ele>
        <time>2009-09-02T13:25:18Z</time>
      </trkpt>
      <trkpt lat="49.2191" lon="1.39557">
        <ele>16.479736</ele>
        <time>2009-09-02T13:25:20Z</time>
      </trkpt>
      <trkpt lat="49.21879" lon="1.39552">
        <ele>15.999023</ele>
        <time>2009-09-02T13:25:25Z</time>
      </trkpt>
      <trkpt lat="49.21862" lon="1.3954">
        <ele>14.076416</ele>
        <time>2009-09-02T13:25:29Z</time>
      </trkpt>
      <trkpt lat="49.21842" lon="1.39524">
        <ele>13.115112</ele>
        <time>2009-09-02T13:25:35Z</time>
      </trkpt>
      <trkpt lat="49.21839" lon="1.39522">
        <ele>12.153808</ele>
        <time>2009-09-02T13:25:36Z</time>
      </trkpt>
      <trkpt lat="49.21825" lon="1.39494">
        <ele>11.192504</ele>
        <time>2009-09-02T13:25:43Z</time>
      </trkpt>
      <trkpt lat="49.2181" lon="1.39469">
        <ele>15.037719</ele>
        <time>2009-09-02T13:25:50Z</time>
      </trkpt>
      <trkpt lat="49.21796" lon="1.39457">
        <ele>19.84436</ele>
        <time>2009-09-02T13:25:56Z</time>
      </trkpt>
      <trkpt lat="49.21775" lon="1.39443">
        <ele>24.170288</ele>
        <time>2009-09-02T13:26:03Z</time>
      </trkpt>
      <trkpt lat="49.21759" lon="1.39442">
        <ele>25.131713</ele>
        <time>2009-09-02T13:26:08Z</time>
      </trkpt>
      <trkpt lat="49.21746" lon="1.39444">
        <ele>26.092895</ele>
        <time>2009-09-02T13:26:14Z</time>
      </trkpt>
      <trkpt lat="49.21735" lon="1.39446">
        <ele>29.93811</ele>
        <time>2009-09-02T13:26:19Z</time>
      </trkpt>
      <trkpt lat="49.21728" lon="1.39438">
        <ele>30.899536</ele>
        <time>2009-09-02T13:26:25Z</time>
      </trkpt>
      <trkpt lat="49.21716" lon="1.39435">
        <ele>26.092895</ele>
        <time>2009-09-02T13:26:32Z</time>
      </trkpt>
      <trkpt lat="49.21703" lon="1.39437">
        <ele>26.573608</ele>
        <time>2009-09-02T13:26:39Z</time>
      </trkpt>
      <trkpt lat="49.21696" lon="1.39436">
        <ele>28.976928</ele>
        <time>2009-09-02T13:26:45Z</time>
      </trkpt>
      <trkpt lat="49.21695" lon="1.39437">
        <ele>30.418823</ele>
        <time>2009-09-02T13:26:46Z</time>
      </trkpt>
      <trkpt lat="49.21692" lon="1.39437">
        <ele>33.783447</ele>
        <time>2009-09-02T13:26:53Z</time>
      </trkpt>
      <trkpt lat="49.21691" lon="1.39432">
        <ele>41.954711</ele>
        <time>2009-09-02T13:27:04Z</time>
      </trkpt>
      <trkpt lat="49.21689" lon="1.39431">
        <ele>40.512817</ele>
        <time>2009-09-02T13:27:08Z</time>
      </trkpt>
      <trkpt lat="49.21686" lon="1.3943">
        <ele>42.435424</ele>
        <time>2009-09-02T13:27:12Z</time>
      </trkpt>
      <trkpt lat="49.21681" lon="1.39429">
        <ele>44.358032</ele>
        <time>2009-09-02T13:27:19Z</time>
      </trkpt>
      <trkpt lat="49.21674" lon="1.39427">
        <ele>48.203369</ele>
        <time>2009-09-02T13:27:26Z</time>
      </trkpt>
      <trkpt lat="49.21667" lon="1.39427">
        <ele>50.606567</ele>
        <time>2009-09-02T13:27:32Z</time>
      </trkpt>
      <trkpt lat="49.21659" lon="1.3943">
        <ele>51.087158</ele>
        <time>2009-09-02T13:27:39Z</time>
      </trkpt>
      <trkpt lat="49.21656" lon="1.39425">
        <ele>53.490478</ele>
        <time>2009-09-02T13:27:45Z</time>
      </trkpt>
      <trkpt lat="49.21653" lon="1.39421">
        <ele>61.661743</ele>
        <time>2009-09-02T13:28:09Z</time>
      </trkpt>
      <trkpt lat="49.21646" lon="1.39427">
        <ele>51.087158</ele>
        <time>2009-09-02T13:28:13Z</time>
      </trkpt>
      <trkpt lat="49.21637" lon="1.39425">
        <ele>50.125976</ele>
        <time>2009-09-02T13:28:17Z</time>
      </trkpt>
      <trkpt lat="49.21622" lon="1.39421">
        <ele>46.280639</ele>
        <time>2009-09-02T13:28:24Z</time>
      </trkpt>
      <trkpt lat="49.21609" lon="1.3941">
        <ele>47.241821</ele>
        <time>2009-09-02T13:28:30Z</time>
      </trkpt>
      <trkpt lat="49.21592" lon="1.39394">
        <ele>49.645263</ele>
        <time>2009-09-02T13:28:35Z</time>
      </trkpt>
      <trkpt lat="49.21572" lon="1.39384">
        <ele>48.203369</ele>
        <time>2009-09-02T13:28:41Z</time>
      </trkpt>
      <trkpt lat="49.21548" lon="1.39367">
        <ele>48.68396</ele>
        <time>2009-09-02T13:28:48Z</time>
      </trkpt>
      <trkpt lat="49.21532" lon="1.39361">
        <ele>47.722534</ele>
        <time>2009-09-02T13:28:53Z</time>
      </trkpt>
      <trkpt lat="49.21516" lon="1.39359">
        <ele>47.241821</ele>
        <time>2009-09-02T13:28:59Z</time>
      </trkpt>
      <trkpt lat="49.21507" lon="1.39352">
        <ele>50.125976</ele>
        <time>2009-09-02T13:29:03Z</time>
      </trkpt>
      <trkpt lat="49.21492" lon="1.39343">
        <ele>53.009765</ele>
        <time>2009-09-02T13:29:08Z</time>
      </trkpt>
      <trkpt lat="49.21474" lon="1.39338">
        <ele>53.009765</ele>
        <time>2009-09-02T13:29:14Z</time>
      </trkpt>
      <trkpt lat="49.21456" lon="1.3933">
        <ele>53.490478</ele>
        <time>2009-09-02T13:29:21Z</time>
      </trkpt>
      <trkpt lat="49.21446" lon="1.39325">
        <ele>51.087158</ele>
        <time>2009-09-02T13:29:27Z</time>
      </trkpt>
      <trkpt lat="49.21429" lon="1.39315">
        <ele>49.16455</ele>
        <time>2009-09-02T13:29:33Z</time>
      </trkpt>
      <trkpt lat="49.21417" lon="1.39308">
        <ele>43.877319</ele>
        <time>2009-09-02T13:29:37Z</time>
      </trkpt>
      <trkpt lat="49.21408" lon="1.39302">
        <ele>42.435424</ele>
        <time>2009-09-02T13:29:41Z</time>
      </trkpt>
      <trkpt lat="49.21396" lon="1.39282">
        <ele>42.916015</ele>
        <time>2009-09-02T13:29:45Z</time>
      </trkpt>
      <trkpt lat="49.21381" lon="1.39247">
        <ele>42.435424</ele>
        <time>2009-09-02T13:29:51Z</time>
      </trkpt>
      <trkpt lat="49.21378" lon="1.3924">
        <ele>42.916015</ele>
        <time>2009-09-02T13:29:52Z</time>
      </trkpt>
      <trkpt lat="49.21361" lon="1.39215">
        <ele>42.435424</ele>
        <time>2009-09-02T13:29:57Z</time>
      </trkpt>
      <trkpt lat="49.21333" lon="1.39194">
        <ele>42.916015</ele>
        <time>2009-09-02T13:30:03Z</time>
      </trkpt>
      <trkpt lat="49.21317" lon="1.39178">
        <ele>48.203369</ele>
        <time>2009-09-02T13:30:07Z</time>
      </trkpt>
      <trkpt lat="49.21292" lon="1.39165">
        <ele>46.280639</ele>
        <time>2009-09-02T13:30:12Z</time>
      </trkpt>
      <trkpt lat="49.21265" lon="1.39154">
        <ele>44.358032</ele>
        <time>2009-09-02T13:30:17Z</time>
      </trkpt>
      <trkpt lat="49.21248" lon="1.39142">
        <ele>46.280639</ele>
        <time>2009-09-02T13:30:21Z</time>
      </trkpt>
      <trkpt lat="49.21222" lon="1.39126">
        <ele>47.241821</ele>
        <time>2009-09-02T13:30:27Z</time>
      </trkpt>
      <trkpt lat="49.2119" lon="1.39112">
        <ele>47.722534</ele>
        <time>2009-09-02T13:30:34Z</time>
      </trkpt>
      <trkpt lat="49.21177" lon="1.39107">
        <ele>47.241821</ele>
        <time>2009-09-02T13:30:37Z</time>
      </trkpt>
      <trkpt lat="49.2116" lon="1.39097">
        <ele>47.722534</ele>
        <time>2009-09-02T13:30:41Z</time>
      </trkpt>
      <trkpt lat="49.21139" lon="1.39085">
        <ele>44.358032</ele>
        <time>2009-09-02T13:30:46Z</time>
      </trkpt>
      <trkpt lat="49.21125" lon="1.39084">
        <ele>44.358032</ele>
        <time>2009-09-02T13:30:50Z</time>
      </trkpt>
      <trkpt lat="49.21104" lon="1.39081">
        <ele>47.241821</ele>
        <time>2009-09-02T13:30:56Z</time>
      </trkpt>
      <trkpt lat="49.21085" lon="1.39078">
        <ele>47.722534</ele>
        <time>2009-09-02T13:31:03Z</time>
      </trkpt>
      <trkpt lat="49.2106" lon="1.39077">
        <ele>48.203369</ele>
        <time>2009-09-02T13:31:10Z</time>
      </trkpt>
      <trkpt lat="49.21032" lon="1.39073">
        <ele>48.68396</ele>
        <time>2009-09-02T13:31:18Z</time>
      </trkpt>
      <trkpt lat="49.21012" lon="1.39072">
        <ele>50.125976</ele>
        <time>2009-09-02T13:31:24Z</time>
      </trkpt>
      <trkpt lat="49.2099" lon="1.39068">
        <ele>51.087158</ele>
        <time>2009-09-02T13:31:31Z</time>
      </trkpt>
      <trkpt lat="49.20962" lon="1.39058">
        <ele>51.087158</ele>
        <time>2009-09-02T13:31:38Z</time>
      </trkpt>
      <trkpt lat="49.2095" lon="1.39051">
        <ele>50.125976</ele>
        <time>2009-09-02T13:31:41Z</time>
      </trkpt>
      <trkpt lat="49.20932" lon="1.39042">
        <ele>52.529174</ele>
        <time>2009-09-02T13:31:45Z</time>
      </trkpt>
      <trkpt lat="49.2089" lon="1.39023">
        <ele>52.048584</ele>
        <time>2009-09-02T13:31:53Z</time>
      </trkpt>
      <trkpt lat="49.20856" lon="1.39004">
        <ele>51.087158</ele>
        <time>2009-09-02T13:32:00Z</time>
      </trkpt>
      <trkpt lat="49.20814" lon="1.38986">
        <ele>49.645263</ele>
        <time>2009-09-02T13:32:08Z</time>
      </trkpt>
      <trkpt lat="49.20785" lon="1.3898">
        <ele>50.125976</ele>
        <time>2009-09-02T13:32:14Z</time>
      </trkpt>
      <trkpt lat="49.20777" lon="1.38977">
        <ele>50.606567</ele>
        <time>2009-09-02T13:32:16Z</time>
      </trkpt>
      <trkpt lat="49.20753" lon="1.38965">
        <ele>52.529174</ele>
        <time>2009-09-02T13:32:22Z</time>
      </trkpt>
      <trkpt lat="49.20732" lon="1.38955">
        <ele>54.451782</ele>
        <time>2009-09-02T13:32:27Z</time>
      </trkpt>
      <trkpt lat="49.20717" lon="1.38946">
        <ele>54.932373</ele>
        <time>2009-09-02T13:32:31Z</time>
      </trkpt>
      <trkpt lat="49.20689" lon="1.38929">
        <ele>56.855102</ele>
        <time>2009-09-02T13:32:38Z</time>
      </trkpt>
      <trkpt lat="49.20677" lon="1.3892">
        <ele>58.297119</ele>
        <time>2009-09-02T13:32:41Z</time>
      </trkpt>
      <trkpt lat="49.20659" lon="1.38912">
        <ele>56.374511</ele>
        <time>2009-09-02T13:32:47Z</time>
      </trkpt>
      <trkpt lat="49.20635" lon="1.38905">
        <ele>54.932373</ele>
        <time>2009-09-02T13:32:54Z</time>
      </trkpt>
      <trkpt lat="49.20598" lon="1.38897">
        <ele>54.451782</ele>
        <time>2009-09-02T13:33:03Z</time>
      </trkpt>
      <trkpt lat="49.20565" lon="1.38882">
        <ele>55.413085</ele>
        <time>2009-09-02T13:33:11Z</time>
      </trkpt>
      <trkpt lat="49.2053" lon="1.38868">
        <ele>54.451782</ele>
        <time>2009-09-02T13:33:19Z</time>
      </trkpt>
      <trkpt lat="49.20486" lon="1.38851">
        <ele>53.971191</ele>
        <time>2009-09-02T13:33:27Z</time>
      </trkpt>
      <trkpt lat="49.20444" lon="1.38833">
        <ele>50.125976</ele>
        <time>2009-09-02T13:33:33Z</time>
      </trkpt>
      <trkpt lat="49.20421" lon="1.38824">
        <ele>47.722534</ele>
        <time>2009-09-02T13:33:36Z</time>
      </trkpt>
      <trkpt lat="49.20393" lon="1.38813">
        <ele>44.358032</ele>
        <time>2009-09-02T13:33:40Z</time>
      </trkpt>
      <trkpt lat="49.20382" lon="1.3881">
        <ele>44.358032</ele>
        <time>2009-09-02T13:33:42Z</time>
      </trkpt>
      <trkpt lat="49.20372" lon="1.38804">
        <ele>42.916015</ele>
        <time>2009-09-02T13:33:46Z</time>
      </trkpt>
      <trkpt lat="49.20371" lon="1.38803">
        <ele>40.032104</ele>
        <time>2009-09-02T13:33:51Z</time>
      </trkpt>
      <trkpt lat="49.20369" lon="1.38802">
        <ele>39.551269</ele>
        <time>2009-09-02T13:33:52Z</time>
      </trkpt>
      <trkpt lat="49.20363" lon="1.38816">
        <ele>39.551269</ele>
        <time>2009-09-02T13:33:57Z</time>
      </trkpt>
      <trkpt lat="49.20362" lon="1.38821">
        <ele>39.551269</ele>
        <time>2009-09-02T13:33:58Z</time>
      </trkpt>
      <trkpt lat="49.2035" lon="1.38858">
        <ele>40.512817</ele>
        <time>2009-09-02T13:34:07Z</time>
      </trkpt>
      <trkpt lat="49.20345" lon="1.38876">
        <ele>42.435424</ele>
        <time>2009-09-02T13:34:12Z</time>
      </trkpt>
      <trkpt lat="49.2034" lon="1.38898">
        <ele>44.838623</ele>
        <time>2009-09-02T13:34:18Z</time>
      </trkpt>
      <trkpt lat="49.20331" lon="1.38933">
        <ele>48.203369</ele>
        <time>2009-09-02T13:34:26Z</time>
      </trkpt>
      <trkpt lat="49.20324" lon="1.38966">
        <ele>49.645263</ele>
        <time>2009-09-02T13:34:34Z</time>
      </trkpt>
      <trkpt lat="49.2032" lon="1.39004">
        <ele>49.645263</ele>
        <time>2009-09-02T13:34:43Z</time>
      </trkpt>
      <trkpt lat="49.20315" lon="1.39052">
        <ele>52.529174</ele>
        <time>2009-09-02T13:34:54Z</time>
      </trkpt>
      <trkpt lat="49.20311" lon="1.39108">
        <ele>57.335815</ele>
        <time>2009-09-02T13:35:06Z</time>
      </trkpt>
      <trkpt lat="49.20307" lon="1.39154">
        <ele>63.103637</ele>
        <time>2009-09-02T13:35:16Z</time>
      </trkpt>
      <trkpt lat="49.20304" lon="1.39193">
        <ele>67.429687</ele>
        <time>2009-09-02T13:35:25Z</time>
      </trkpt>
      <trkpt lat="49.20298" lon="1.3922">
        <ele>67.910278</ele>
        <time>2009-09-02T13:35:32Z</time>
      </trkpt>
      <trkpt lat="49.20294" lon="1.39244">
        <ele>71.274902</ele>
        <time>2009-09-02T13:35:38Z</time>
      </trkpt>
      <trkpt lat="49.20287" lon="1.39266">
        <ele>74.639526</ele>
        <time>2009-09-02T13:35:43Z</time>
      </trkpt>
      <trkpt lat="49.20283" lon="1.39293">
        <ele>76.08142</ele>
        <time>2009-09-02T13:35:50Z</time>
      </trkpt>
      <trkpt lat="49.20277" lon="1.39315">
        <ele>76.08142</ele>
        <time>2009-09-02T13:35:56Z</time>
      </trkpt>
      <trkpt lat="49.20274" lon="1.39333">
        <ele>76.08142</ele>
        <time>2009-09-02T13:36:01Z</time>
      </trkpt>
      <trkpt lat="49.20273" lon="1.39351">
        <ele>79.446044</ele>
        <time>2009-09-02T13:36:07Z</time>
      </trkpt>
      <trkpt lat="49.2027" lon="1.39371">
        <ele>81.368774</ele>
        <time>2009-09-02T13:36:13Z</time>
      </trkpt>
      <trkpt lat="49.20267" lon="1.39385">
        <ele>81.849365</ele>
        <time>2009-09-02T13:36:18Z</time>
      </trkpt>
      <trkpt lat="49.20262" lon="1.39402">
        <ele>82.330078</ele>
        <time>2009-09-02T13:36:24Z</time>
      </trkpt>
      <trkpt lat="49.2026" lon="1.39409">
        <ele>82.810791</ele>
        <time>2009-09-02T13:36:27Z</time>
      </trkpt>
      <trkpt lat="49.20252" lon="1.39432">
        <ele>91.943237</ele>
        <time>2009-09-02T13:36:35Z</time>
      </trkpt>
      <trkpt lat="49.20248" lon="1.39452">
        <ele>97.711181</ele>
        <time>2009-09-02T13:36:42Z</time>
      </trkpt>
      <trkpt lat="49.20247" lon="1.39455">
        <ele>99.153076</ele>
        <time>2009-09-02T13:36:43Z</time>
      </trkpt>
      <trkpt lat="49.20241" lon="1.39475">
        <ele>101.55639</ele>
        <time>2009-09-02T13:36:51Z</time>
      </trkpt>
      <trkpt lat="49.20234" lon="1.39494">
        <ele>105.88244</ele>
        <time>2009-09-02T13:36:59Z</time>
      </trkpt>
      <trkpt lat="49.20231" lon="1.39517">
        <ele>103.95971</ele>
        <time>2009-09-02T13:37:06Z</time>
      </trkpt>
      <trkpt lat="49.20231" lon="1.39519">
        <ele>103.95971</ele>
        <time>2009-09-02T13:37:07Z</time>
      </trkpt>
      <trkpt lat="49.20223" lon="1.39537">
        <ele>107.32434</ele>
        <time>2009-09-02T13:37:14Z</time>
      </trkpt>
      <trkpt lat="49.20212" lon="1.39557">
        <ele>110.68884</ele>
        <time>2009-09-02T13:37:22Z</time>
      </trkpt>
      <trkpt lat="49.20203" lon="1.3957">
        <ele>113.57299</ele>
        <time>2009-09-02T13:37:28Z</time>
      </trkpt>
      <trkpt lat="49.20197" lon="1.39581">
        <ele>114.53417</ele>
        <time>2009-09-02T13:37:33Z</time>
      </trkpt>
      <trkpt lat="49.20188" lon="1.39596">
        <ele>108.76623</ele>
        <time>2009-09-02T13:37:39Z</time>
      </trkpt>
      <trkpt lat="49.2018" lon="1.3961">
        <ele>107.80505</ele>
        <time>2009-09-02T13:37:45Z</time>
      </trkpt>
      <trkpt lat="49.20172" lon="1.39626">
        <ele>105.40173</ele>
        <time>2009-09-02T13:37:51Z</time>
      </trkpt>
      <trkpt lat="49.20163" lon="1.39638">
        <ele>107.80505</ele>
        <time>2009-09-02T13:37:56Z</time>
      </trkpt>
      <trkpt lat="49.20156" lon="1.39653">
        <ele>110.20825</ele>
        <time>2009-09-02T13:38:02Z</time>
      </trkpt>
      <trkpt lat="49.20147" lon="1.39673">
        <ele>113.09228</ele>
        <time>2009-09-02T13:38:10Z</time>
      </trkpt>
      <trkpt lat="49.20141" lon="1.39684">
        <ele>115.97619</ele>
        <time>2009-09-02T13:38:14Z</time>
      </trkpt>
      <trkpt lat="49.20134" lon="1.397">
        <ele>116.45678</ele>
        <time>2009-09-02T13:38:20Z</time>
      </trkpt>
      <trkpt lat="49.20129" lon="1.39727">
        <ele>114.05358</ele>
        <time>2009-09-02T13:38:28Z</time>
      </trkpt>
      <trkpt lat="49.20133" lon="1.39751">
        <ele>114.05358</ele>
        <time>2009-09-02T13:38:35Z</time>
      </trkpt>
      <trkpt lat="49.20134" lon="1.39756">
        <ele>113.57299</ele>
        <time>2009-09-02T13:38:37Z</time>
      </trkpt>
      <trkpt lat="49.20137" lon="1.3977">
        <ele>114.05358</ele>
        <time>2009-09-02T13:38:42Z</time>
      </trkpt>
      <trkpt lat="49.20142" lon="1.39788">
        <ele>111.16955</ele>
        <time>2009-09-02T13:38:49Z</time>
      </trkpt>
      <trkpt lat="49.20142" lon="1.39802">
        <ele>110.20825</ele>
        <time>2009-09-02T13:38:53Z</time>
      </trkpt>
      <trkpt lat="49.2015" lon="1.39816">
        <ele>107.80505</ele>
        <time>2009-09-02T13:38:58Z</time>
      </trkpt>
      <trkpt lat="49.20149" lon="1.39823">
        <ele>111.65026</ele>
        <time>2009-09-02T13:39:00Z</time>
      </trkpt>
      <trkpt lat="49.20164" lon="1.39841">
        <ele>111.16955</ele>
        <time>2009-09-02T13:39:06Z</time>
      </trkpt>
      <trkpt lat="49.20177" lon="1.39864">
        <ele>114.05358</ele>
        <time>2009-09-02T13:39:13Z</time>
      </trkpt>
      <trkpt lat="49.2019" lon="1.39892">
        <ele>111.16955</ele>
        <time>2009-09-02T13:39:21Z</time>
      </trkpt>
      <trkpt lat="49.20192" lon="1.39914">
        <ele>111.65026</ele>
        <time>2009-09-02T13:39:26Z</time>
      </trkpt>
      <trkpt lat="49.20194" lon="1.39921">
        <ele>111.65026</ele>
        <time>2009-09-02T13:39:28Z</time>
      </trkpt>
      <trkpt lat="49.20189" lon="1.39948">
        <ele>117.41821</ele>
        <time>2009-09-02T13:39:35Z</time>
      </trkpt>
      <trkpt lat="49.20184" lon="1.39972">
        <ele>124.62805</ele>
        <time>2009-09-02T13:39:41Z</time>
      </trkpt>
      <trkpt lat="49.2018" lon="1.40003">
        <ele>126.06994</ele>
        <time>2009-09-02T13:39:48Z</time>
      </trkpt>
      <trkpt lat="49.20175" lon="1.40029">
        <ele>126.55065</ele>
        <time>2009-09-02T13:39:55Z</time>
      </trkpt>
      <trkpt lat="49.20169" lon="1.40052">
        <ele>128.47338</ele>
        <time>2009-09-02T13:40:01Z</time>
      </trkpt>
      <trkpt lat="49.20163" lon="1.4008">
        <ele>131.35729</ele>
        <time>2009-09-02T13:40:08Z</time>
      </trkpt>
      <trkpt lat="49.2016" lon="1.40094">
        <ele>131.83789</ele>
        <time>2009-09-02T13:40:11Z</time>
      </trkpt>
      <trkpt lat="49.20165" lon="1.40124">
        <ele>131.83789</ele>
        <time>2009-09-02T13:40:19Z</time>
      </trkpt>
      <trkpt lat="49.20167" lon="1.40145">
        <ele>134.24121</ele>
        <time>2009-09-02T13:40:25Z</time>
      </trkpt>
      <trkpt lat="49.20171" lon="1.40173">
        <ele>136.64465</ele>
        <time>2009-09-02T13:40:32Z</time>
      </trkpt>
      <trkpt lat="49.20167" lon="1.40195">
        <ele>138.08654</ele>
        <time>2009-09-02T13:40:39Z</time>
      </trkpt>
      <trkpt lat="49.20157" lon="1.40217">
        <ele>140.00915</ele>
        <time>2009-09-02T13:40:45Z</time>
      </trkpt>
      <trkpt lat="49.20145" lon="1.4024">
        <ele>140.97045</ele>
        <time>2009-09-02T13:40:52Z</time>
      </trkpt>
      <trkpt lat="49.20135" lon="1.40263">
        <ele>139.52844</ele>
        <time>2009-09-02T13:40:58Z</time>
      </trkpt>
      <trkpt lat="49.20124" lon="1.40289">
        <ele>137.12524</ele>
        <time>2009-09-02T13:41:04Z</time>
      </trkpt>
      <trkpt lat="49.20115" lon="1.40315">
        <ele>138.08654</ele>
        <time>2009-09-02T13:41:11Z</time>
      </trkpt>
      <trkpt lat="49.20106" lon="1.40333">
        <ele>137.60583</ele>
        <time>2009-09-02T13:41:16Z</time>
      </trkpt>
      <trkpt lat="49.201" lon="1.40357">
        <ele>140.48986</ele>
        <time>2009-09-02T13:41:22Z</time>
      </trkpt>
      <trkpt lat="49.20089" lon="1.40378">
        <ele>141.45104</ele>
        <time>2009-09-02T13:41:27Z</time>
      </trkpt>
      <trkpt lat="49.20077" lon="1.40406">
        <ele>141.45104</ele>
        <time>2009-09-02T13:41:31Z</time>
      </trkpt>
      <trkpt lat="49.20064" lon="1.40437">
        <ele>137.12524</ele>
        <time>2009-09-02T13:41:37Z</time>
      </trkpt>
      <trkpt lat="49.20055" lon="1.40463">
        <ele>135.6831</ele>
        <time>2009-09-02T13:41:41Z</time>
      </trkpt>
      <trkpt lat="49.20041" lon="1.40503">
        <ele>137.12524</ele>
        <time>2009-09-02T13:41:46Z</time>
      </trkpt>
      <trkpt lat="49.20022" lon="1.4054">
        <ele>132.3186</ele>
        <time>2009-09-02T13:41:52Z</time>
      </trkpt>
      <trkpt lat="49.20019" lon="1.40547">
        <ele>132.79931</ele>
        <time>2009-09-02T13:41:53Z</time>
      </trkpt>
      <trkpt lat="49.20001" lon="1.40596">
        <ele>133.76049</ele>
        <time>2009-09-02T13:42:00Z</time>
      </trkpt>
      <trkpt lat="49.19992" lon="1.40616">
        <ele>133.76049</ele>
        <time>2009-09-02T13:42:03Z</time>
      </trkpt>
      <trkpt lat="49.19985" lon="1.40636">
        <ele>135.20251</ele>
        <time>2009-09-02T13:42:06Z</time>
      </trkpt>
      <trkpt lat="49.19968" lon="1.40679">
        <ele>136.64465</ele>
        <time>2009-09-02T13:42:12Z</time>
      </trkpt>
      <trkpt lat="49.19961" lon="1.40693">
        <ele>137.12524</ele>
        <time>2009-09-02T13:42:14Z</time>
      </trkpt>
      <trkpt lat="49.19959" lon="1.40702">
        <ele>136.64465</ele>
        <time>2009-09-02T13:42:16Z</time>
      </trkpt>
      <trkpt lat="49.19969" lon="1.40715">
        <ele>134.72192</ele>
        <time>2009-09-02T13:42:20Z</time>
      </trkpt>
      <trkpt lat="49.19977" lon="1.4072">
        <ele>131.83789</ele>
        <time>2009-09-02T13:42:22Z</time>
      </trkpt>
      <trkpt lat="49.20002" lon="1.40732">
        <ele>129.91528</ele>
        <time>2009-09-02T13:42:28Z</time>
      </trkpt>
      <trkpt lat="49.20026" lon="1.40744">
        <ele>121.74414</ele>
        <time>2009-09-02T13:42:34Z</time>
      </trkpt>
      <trkpt lat="49.20042" lon="1.40753">
        <ele>117.8988</ele>
        <time>2009-09-02T13:42:37Z</time>
      </trkpt>
      <trkpt lat="49.20074" lon="1.4077">
        <ele>115.4956</ele>
        <time>2009-09-02T13:42:43Z</time>
      </trkpt>
      <trkpt lat="49.20105" lon="1.40787">
        <ele>111.65026</ele>
        <time>2009-09-02T13:42:50Z</time>
      </trkpt>
      <trkpt lat="49.20134" lon="1.40802">
        <ele>107.80505</ele>
        <time>2009-09-02T13:42:56Z</time>
      </trkpt>
      <trkpt lat="49.2015" lon="1.40811">
        <ele>108.28564</ele>
        <time>2009-09-02T13:42:59Z</time>
      </trkpt>
      <trkpt lat="49.20184" lon="1.40827">
        <ele>112.61157</ele>
        <time>2009-09-02T13:43:05Z</time>
      </trkpt>
      <trkpt lat="49.20213" lon="1.40838">
        <ele>116.45678</ele>
        <time>2009-09-02T13:43:10Z</time>
      </trkpt>
      <trkpt lat="49.2023" lon="1.40846">
        <ele>120.30212</ele>
        <time>2009-09-02T13:43:13Z</time>
      </trkpt>
      <trkpt lat="49.20278" lon="1.4086">
        <ele>133.76049</ele>
        <time>2009-09-02T13:43:21Z</time>
      </trkpt>
      <trkpt lat="49.2029" lon="1.40862">
        <ele>135.6831</ele>
        <time>2009-09-02T13:43:23Z</time>
      </trkpt>
      <trkpt lat="49.20317" lon="1.40867">
        <ele>137.12524</ele>
        <time>2009-09-02T13:43:28Z</time>
      </trkpt>
      <trkpt lat="49.20352" lon="1.40876">
        <ele>134.24121</ele>
        <time>2009-09-02T13:43:34Z</time>
      </trkpt>
      <trkpt lat="49.20357" lon="1.40877">
        <ele>136.16394</ele>
        <time>2009-09-02T13:43:35Z</time>
      </trkpt>
      <trkpt lat="49.20389" lon="1.40889">
        <ele>136.64465</ele>
        <time>2009-09-02T13:43:41Z</time>
      </trkpt>
      <trkpt lat="49.20394" lon="1.40891">
        <ele>137.12524</ele>
        <time>2009-09-02T13:43:42Z</time>
      </trkpt>
      <trkpt lat="49.20424" lon="1.40914">
        <ele>134.72192</ele>
        <time>2009-09-02T13:43:48Z</time>
      </trkpt>
      <trkpt lat="49.20452" lon="1.40934">
        <ele>137.60583</ele>
        <time>2009-09-02T13:43:52Z</time>
      </trkpt>
      <trkpt lat="49.20481" lon="1.40955">
        <ele>141.93176</ele>
        <time>2009-09-02T13:43:57Z</time>
      </trkpt>
      <trkpt lat="49.20512" lon="1.4098">
        <ele>141.45104</ele>
        <time>2009-09-02T13:44:03Z</time>
      </trkpt>
      <trkpt lat="49.20547" lon="1.41009">
        <ele>137.12524</ele>
        <time>2009-09-02T13:44:10Z</time>
      </trkpt>
      <trkpt lat="49.20569" lon="1.41029">
        <ele>135.20251</ele>
        <time>2009-09-02T13:44:15Z</time>
      </trkpt>
      <trkpt lat="49.20607" lon="1.41055">
        <ele>133.2799</ele>
        <time>2009-09-02T13:44:21Z</time>
      </trkpt>
      <trkpt lat="49.2063" lon="1.41071">
        <ele>130.39599</ele>
        <time>2009-09-02T13:44:25Z</time>
      </trkpt>
      <trkpt lat="49.20663" lon="1.41099">
        <ele>131.83789</ele>
        <time>2009-09-02T13:44:31Z</time>
      </trkpt>
      <trkpt lat="49.20699" lon="1.41125">
        <ele>139.04785</ele>
        <time>2009-09-02T13:44:37Z</time>
      </trkpt>
      <trkpt lat="49.20703" lon="1.41128">
        <ele>140.97045</ele>
        <time>2009-09-02T13:44:38Z</time>
      </trkpt>
      <trkpt lat="49.20741" lon="1.4116">
        <ele>148.18041</ele>
        <time>2009-09-02T13:44:45Z</time>
      </trkpt>
      <trkpt lat="49.20765" lon="1.41179">
        <ele>146.7384</ele>
        <time>2009-09-02T13:44:50Z</time>
      </trkpt>
      <trkpt lat="49.20788" lon="1.41196">
        <ele>144.3352</ele>
        <time>2009-09-02T13:44:54Z</time>
      </trkpt>
      <trkpt lat="49.2082" lon="1.41219">
        <ele>140.48986</ele>
        <time>2009-09-02T13:44:59Z</time>
      </trkpt>
      <trkpt lat="49.20849" lon="1.41247">
        <ele>139.04785</ele>
        <time>2009-09-02T13:45:05Z</time>
      </trkpt>
      <trkpt lat="49.20873" lon="1.41265">
        <ele>136.64465</ele>
        <time>2009-09-02T13:45:09Z</time>
      </trkpt>
      <trkpt lat="49.20913" lon="1.41293">
        <ele>133.76049</ele>
        <time>2009-09-02T13:45:16Z</time>
      </trkpt>
      <trkpt lat="49.20938" lon="1.41311">
        <ele>134.24121</ele>
        <time>2009-09-02T13:45:20Z</time>
      </trkpt>
      <trkpt lat="49.20977" lon="1.41344">
        <ele>139.04785</ele>
        <time>2009-09-02T13:45:27Z</time>
      </trkpt>
      <trkpt lat="49.20985" lon="1.41349">
        <ele>137.60583</ele>
        <time>2009-09-02T13:45:29Z</time>
      </trkpt>
      <trkpt lat="49.21021" lon="1.41383">
        <ele>119.82141</ele>
        <time>2009-09-02T13:45:37Z</time>
      </trkpt>
      <trkpt lat="49.21028" lon="1.41391">
        <ele>116.9375</ele>
        <time>2009-09-02T13:45:39Z</time>
      </trkpt>
      <trkpt lat="49.21058" lon="1.41407">
        <ele>103.95971</ele>
        <time>2009-09-02T13:45:44Z</time>
      </trkpt>
      <trkpt lat="49.21103" lon="1.41422">
        <ele>103.95971</ele>
        <time>2009-09-02T13:45:49Z</time>
      </trkpt>
      <trkpt lat="49.21175" lon="1.41443">
        <ele>122.70544</ele>
        <time>2009-09-02T13:45:57Z</time>
      </trkpt>
      <trkpt lat="49.2125" lon="1.41465">
        <ele>136.16394</ele>
        <time>2009-09-02T13:46:06Z</time>
      </trkpt>
      <trkpt lat="49.21328" lon="1.41486">
        <ele>139.52844</ele>
        <time>2009-09-02T13:46:16Z</time>
      </trkpt>
      <trkpt lat="49.21413" lon="1.41508">
        <ele>141.93176</ele>
        <time>2009-09-02T13:46:27Z</time>
      </trkpt>
      <trkpt lat="49.21483" lon="1.41527">
        <ele>141.45104</ele>
        <time>2009-09-02T13:46:36Z</time>
      </trkpt>
      <trkpt lat="49.21536" lon="1.41558">
        <ele>142.41247</ele>
        <time>2009-09-02T13:46:43Z</time>
      </trkpt>
      <trkpt lat="49.21612" lon="1.41606">
        <ele>142.41247</ele>
        <time>2009-09-02T13:46:53Z</time>
      </trkpt>
      <trkpt lat="49.21704" lon="1.41665">
        <ele>143.37365</ele>
        <time>2009-09-02T13:47:05Z</time>
      </trkpt>
      <trkpt lat="49.2178" lon="1.41712">
        <ele>144.81579</ele>
        <time>2009-09-02T13:47:15Z</time>
      </trkpt>
      <trkpt lat="49.21847" lon="1.41761">
        <ele>145.77709</ele>
        <time>2009-09-02T13:47:24Z</time>
      </trkpt>
      <trkpt lat="49.21908" lon="1.41801">
        <ele>145.29638</ele>
        <time>2009-09-02T13:47:32Z</time>
      </trkpt>
      <trkpt lat="49.21999" lon="1.41847">
        <ele>144.81579</ele>
        <time>2009-09-02T13:47:43Z</time>
      </trkpt>
      <trkpt lat="49.22074" lon="1.41875">
        <ele>144.3352</ele>
        <time>2009-09-02T13:47:52Z</time>
      </trkpt>
      <trkpt lat="49.22115" lon="1.41894">
        <ele>144.3352</ele>
        <time>2009-09-02T13:47:58Z</time>
      </trkpt>
      <trkpt lat="49.22125" lon="1.41899">
        <ele>144.81579</ele>
        <time>2009-09-02T13:48:00Z</time>
      </trkpt>
      <trkpt lat="49.22139" lon="1.41896">
        <ele>145.77709</ele>
        <time>2009-09-02T13:48:04Z</time>
      </trkpt>
      <trkpt lat="49.22139" lon="1.41888">
        <ele>145.29638</ele>
        <time>2009-09-02T13:48:06Z</time>
      </trkpt>
      <trkpt lat="49.2214" lon="1.41857">
        <ele>143.85437</ele>
        <time>2009-09-02T13:48:13Z</time>
      </trkpt>
      <trkpt lat="49.2215" lon="1.41815">
        <ele>147.21899</ele>
        <time>2009-09-02T13:48:22Z</time>
      </trkpt>
      <trkpt lat="49.22162" lon="1.41777">
        <ele>149.1416</ele>
        <time>2009-09-02T13:48:31Z</time>
      </trkpt>
      <trkpt lat="49.22167" lon="1.41747">
        <ele>147.6997</ele>
        <time>2009-09-02T13:48:38Z</time>
      </trkpt>
      <trkpt lat="49.22171" lon="1.41705">
        <ele>144.3352</ele>
        <time>2009-09-02T13:48:46Z</time>
      </trkpt>
      <trkpt lat="49.22177" lon="1.41665">
        <ele>142.41247</ele>
        <time>2009-09-02T13:48:54Z</time>
      </trkpt>
      <trkpt lat="49.22179" lon="1.41631">
        <ele>143.85437</ele>
        <time>2009-09-02T13:49:01Z</time>
      </trkpt>
      <trkpt lat="49.22188" lon="1.41602">
        <ele>144.3352</ele>
        <time>2009-09-02T13:49:08Z</time>
      </trkpt>
      <trkpt lat="49.22191" lon="1.41599">
        <ele>142.41247</ele>
        <time>2009-09-02T13:49:12Z</time>
      </trkpt>
      <trkpt lat="49.22195" lon="1.41591">
        <ele>142.41247</ele>
        <time>2009-09-02T13:49:19Z</time>
      </trkpt>
      <trkpt lat="49.22207" lon="1.4157">
        <ele>140.97045</ele>
        <time>2009-09-02T13:49:25Z</time>
      </trkpt>
      <trkpt lat="49.22222" lon="1.41529">
        <ele>144.3352</ele>
        <time>2009-09-02T13:49:33Z</time>
      </trkpt>
      <trkpt lat="49.2223" lon="1.41502">
        <ele>146.25781</ele>
        <time>2009-09-02T13:49:38Z</time>
      </trkpt>
      <trkpt lat="49.2224" lon="1.41472">
        <ele>146.7384</ele>
        <time>2009-09-02T13:49:44Z</time>
      </trkpt>
      <trkpt lat="49.22251" lon="1.41455">
        <ele>147.21899</ele>
        <time>2009-09-02T13:49:50Z</time>
      </trkpt>
      <trkpt lat="49.22268" lon="1.41434">
        <ele>149.1416</ele>
        <time>2009-09-02T13:49:57Z</time>
      </trkpt>
      <trkpt lat="49.22278" lon="1.41417">
        <ele>151.0642</ele>
        <time>2009-09-02T13:50:02Z</time>
      </trkpt>
      <trkpt lat="49.22285" lon="1.41393">
        <ele>149.62231</ele>
        <time>2009-09-02T13:50:08Z</time>
      </trkpt>
      <trkpt lat="49.2229" lon="1.41375">
        <ele>148.18041</ele>
        <time>2009-09-02T13:50:12Z</time>
      </trkpt>
      <trkpt lat="49.22282" lon="1.41363">
        <ele>147.21899</ele>
        <time>2009-09-02T13:50:16Z</time>
      </trkpt>
      <trkpt lat="49.22253" lon="1.41354">
        <ele>147.21899</ele>
        <time>2009-09-02T13:50:23Z</time>
      </trkpt>
      <trkpt lat="49.22237" lon="1.41351">
        <ele>147.21899</ele>
        <time>2009-09-02T13:50:27Z</time>
      </trkpt>
      <trkpt lat="49.22206" lon="1.41343">
        <ele>147.21899</ele>
        <time>2009-09-02T13:50:34Z</time>
      </trkpt>
      <trkpt lat="49.22181" lon="1.41324">
        <ele>147.21899</ele>
        <time>2009-09-02T13:50:40Z</time>
      </trkpt>
      <trkpt lat="49.22162" lon="1.41293">
        <ele>147.6997</ele>
        <time>2009-09-02T13:50:46Z</time>
      </trkpt>
      <trkpt lat="49.22157" lon="1.4128">
        <ele>147.21899</ele>
        <time>2009-09-02T13:50:48Z</time>
      </trkpt>
      <trkpt lat="49.22152" lon="1.41259">
        <ele>147.6997</ele>
        <time>2009-09-02T13:50:52Z</time>
      </trkpt>
      <trkpt lat="49.2215" lon="1.41224">
        <ele>147.21899</ele>
        <time>2009-09-02T13:51:01Z</time>
      </trkpt>
      <trkpt lat="49.22147" lon="1.41198">
        <ele>146.7384</ele>
        <time>2009-09-02T13:51:06Z</time>
      </trkpt>
      <trkpt lat="49.22152" lon="1.41153">
        <ele>144.81579</ele>
        <time>2009-09-02T13:51:12Z</time>
      </trkpt>
      <trkpt lat="49.22159" lon="1.41092">
        <ele>142.41247</ele>
        <time>2009-09-02T13:51:19Z</time>
      </trkpt>
      <trkpt lat="49.22168" lon="1.41044">
        <ele>140.00915</ele>
        <time>2009-09-02T13:51:24Z</time>
      </trkpt>
      <trkpt lat="49.22167" lon="1.41001">
        <ele>139.52844</ele>
        <time>2009-09-02T13:51:28Z</time>
      </trkpt>
      <trkpt lat="49.22164" lon="1.40992">
        <ele>140.00915</ele>
        <time>2009-09-02T13:51:29Z</time>
      </trkpt>
      <trkpt lat="49.22136" lon="1.40917">
        <ele>144.81579</ele>
        <time>2009-09-02T13:51:38Z</time>
      </trkpt>
      <trkpt lat="49.22124" lon="1.40887">
        <ele>146.7384</ele>
        <time>2009-09-02T13:51:42Z</time>
      </trkpt>
      <trkpt lat="49.22125" lon="1.40864">
        <ele>146.7384</ele>
        <time>2009-09-02T13:51:46Z</time>
      </trkpt>
      <trkpt lat="49.22146" lon="1.40825">
        <ele>145.29638</ele>
        <time>2009-09-02T13:51:53Z</time>
      </trkpt>
      <trkpt lat="49.22171" lon="1.40775">
        <ele>142.41247</ele>
        <time>2009-09-02T13:52:02Z</time>
      </trkpt>
      <trkpt lat="49.22187" lon="1.40739">
        <ele>143.37365</ele>
        <time>2009-09-02T13:52:09Z</time>
      </trkpt>
      <trkpt lat="49.22208" lon="1.40693">
        <ele>141.45104</ele>
        <time>2009-09-02T13:52:17Z</time>
      </trkpt>
      <trkpt lat="49.22223" lon="1.40665">
        <ele>140.97045</ele>
        <time>2009-09-02T13:52:23Z</time>
      </trkpt>
      <trkpt lat="49.22247" lon="1.40621">
        <ele>140.97045</ele>
        <time>2009-09-02T13:52:31Z</time>
      </trkpt>
      <trkpt lat="49.22261" lon="1.40594">
        <ele>139.04785</ele>
        <time>2009-09-02T13:52:36Z</time>
      </trkpt>
      <trkpt lat="49.22272" lon="1.40577">
        <ele>140.97045</ele>
        <time>2009-09-02T13:52:40Z</time>
      </trkpt>
      <trkpt lat="49.22284" lon="1.40564">
        <ele>140.97045</ele>
        <time>2009-09-02T13:52:43Z</time>
      </trkpt>
      <trkpt lat="49.22291" lon="1.40545">
        <ele>140.00915</ele>
        <time>2009-09-02T13:52:47Z</time>
      </trkpt>
      <trkpt lat="49.22285" lon="1.40537">
        <ele>136.64465</ele>
        <time>2009-09-02T13:52:51Z</time>
      </trkpt>
      <trkpt lat="49.22279" lon="1.40528">
        <ele>132.3186</ele>
        <time>2009-09-02T13:52:55Z</time>
      </trkpt>
      <trkpt lat="49.22281" lon="1.40511">
        <ele>128.9541</ele>
        <time>2009-09-02T13:53:01Z</time>
      </trkpt>
      <trkpt lat="49.22281" lon="1.40502">
        <ele>127.99255</ele>
        <time>2009-09-02T13:53:03Z</time>
      </trkpt>
      <trkpt lat="49.22282" lon="1.40477">
        <ele>128.9541</ele>
        <time>2009-09-02T13:53:09Z</time>
      </trkpt>
      <trkpt lat="49.22282" lon="1.40474">
        <ele>128.47338</ele>
        <time>2009-09-02T13:53:10Z</time>
      </trkpt>
      <trkpt lat="49.22285" lon="1.40454">
        <ele>126.55065</ele>
        <time>2009-09-02T13:53:16Z</time>
      </trkpt>
      <trkpt lat="49.22296" lon="1.40435">
        <ele>122.70544</ele>
        <time>2009-09-02T13:53:21Z</time>
      </trkpt>
      <trkpt lat="49.22302" lon="1.40425">
        <ele>123.18615</ele>
        <time>2009-09-02T13:53:25Z</time>
      </trkpt>
      <trkpt lat="49.22296" lon="1.4042">
        <ele>122.70544</ele>
        <time>2009-09-02T13:53:30Z</time>
      </trkpt>
      <trkpt lat="49.2229" lon="1.40421">
        <ele>123.66674</ele>
        <time>2009-09-02T13:53:32Z</time>
      </trkpt>
      <trkpt lat="49.22274" lon="1.4042">
        <ele>121.74414</ele>
        <time>2009-09-02T13:53:38Z</time>
      </trkpt>
      <trkpt lat="49.22271" lon="1.40413">
        <ele>120.78283</ele>
        <time>2009-09-02T13:53:40Z</time>
      </trkpt>
      <trkpt lat="49.22275" lon="1.40401">
        <ele>113.09228</ele>
        <time>2009-09-02T13:53:46Z</time>
      </trkpt>
      <trkpt lat="49.22278" lon="1.40397">
        <ele>115.01489</ele>
        <time>2009-09-02T13:53:54Z</time>
      </trkpt>
      <trkpt lat="49.22278" lon="1.40394">
        <ele>113.57299</ele>
        <time>2009-09-02T13:54:00Z</time>
      </trkpt>
      <trkpt lat="49.22284" lon="1.40396">
        <ele>119.82141</ele>
        <time>2009-09-02T13:54:07Z</time>
      </trkpt>
      <trkpt lat="49.22284" lon="1.40394">
        <ele>120.30212</ele>
        <time>2009-09-02T13:54:08Z</time>
      </trkpt>
      <trkpt lat="49.2229" lon="1.40386">
        <ele>122.70544</ele>
        <time>2009-09-02T13:54:12Z</time>
      </trkpt>
      <trkpt lat="49.223" lon="1.40364">
        <ele>119.82141</ele>
        <time>2009-09-02T13:54:18Z</time>
      </trkpt>
      <trkpt lat="49.22307" lon="1.40361">
        <ele>119.34082</ele>
        <time>2009-09-02T13:54:21Z</time>
      </trkpt>
      <trkpt lat="49.22315" lon="1.40344">
        <ele>107.32434</ele>
        <time>2009-09-02T13:54:27Z</time>
      </trkpt>
      <trkpt lat="49.22327" lon="1.40332">
        <ele>93.865844</ele>
        <time>2009-09-02T13:54:32Z</time>
      </trkpt>
      <trkpt lat="49.22332" lon="1.40328">
        <ele>87.617187</ele>
        <time>2009-09-02T13:54:35Z</time>
      </trkpt>
      <trkpt lat="49.2233" lon="1.40325">
        <ele>81.849365</ele>
        <time>2009-09-02T13:54:38Z</time>
      </trkpt>
      <trkpt lat="49.22322" lon="1.40322">
        <ele>85.213989</ele>
        <time>2009-09-02T13:54:42Z</time>
      </trkpt>
      <trkpt lat="49.22317" lon="1.40317">
        <ele>85.213989</ele>
        <time>2009-09-02T13:54:48Z</time>
      </trkpt>
      <trkpt lat="49.2232" lon="1.40311">
        <ele>87.136596</ele>
        <time>2009-09-02T13:54:51Z</time>
      </trkpt>
      <trkpt lat="49.22324" lon="1.40305">
        <ele>91.943237</ele>
        <time>2009-09-02T13:54:56Z</time>
      </trkpt>
      <trkpt lat="49.22328" lon="1.40302">
        <ele>97.230468</ele>
        <time>2009-09-02T13:55:03Z</time>
      </trkpt>
      <trkpt lat="49.22329" lon="1.40297">
        <ele>108.76623</ele>
        <time>2009-09-02T13:55:09Z</time>
      </trkpt>
      <trkpt lat="49.22338" lon="1.40289">
        <ele>117.41821</ele>
        <time>2009-09-02T13:55:19Z</time>
      </trkpt>
      <trkpt lat="49.22343" lon="1.40285">
        <ele>115.97619</ele>
        <time>2009-09-02T13:55:24Z</time>
      </trkpt>
      <trkpt lat="49.22347" lon="1.40281">
        <ele>108.76623</ele>
        <time>2009-09-02T13:55:30Z</time>
      </trkpt>
      <trkpt lat="49.22355" lon="1.4027">
        <ele>97.711181</ele>
        <time>2009-09-02T13:55:35Z</time>
      </trkpt>
      <trkpt lat="49.22364" lon="1.40246">
        <ele>86.656005</ele>
        <time>2009-09-02T13:55:40Z</time>
      </trkpt>
      <trkpt lat="49.22366" lon="1.40232">
        <ele>74.639526</ele>
        <time>2009-09-02T13:55:44Z</time>
      </trkpt>
      <trkpt lat="49.22381" lon="1.40221">
        <ele>59.739135</ele>
        <time>2009-09-02T13:55:50Z</time>
      </trkpt>
      <trkpt lat="49.22394" lon="1.40205">
        <ele>53.971191</ele>
        <time>2009-09-02T13:55:55Z</time>
      </trkpt>
      <trkpt lat="49.22395" lon="1.40203">
        <ele>51.087158</ele>
        <time>2009-09-02T13:55:56Z</time>
      </trkpt>
      <trkpt lat="49.22402" lon="1.40184">
        <ele>47.241821</ele>
        <time>2009-09-02T13:56:03Z</time>
      </trkpt>
      <trkpt lat="49.22409" lon="1.40176">
        <ele>48.203369</ele>
        <time>2009-09-02T13:56:07Z</time>
      </trkpt>
      <trkpt lat="49.22416" lon="1.40162">
        <ele>41.473999</ele>
        <time>2009-09-02T13:56:13Z</time>
      </trkpt>
      <trkpt lat="49.22431" lon="1.40144">
        <ele>35.225463</ele>
        <time>2009-09-02T13:56:19Z</time>
      </trkpt>
      <trkpt lat="49.22434" lon="1.40143">
        <ele>36.66748</ele>
        <time>2009-09-02T13:56:20Z</time>
      </trkpt>
      <trkpt lat="49.22436" lon="1.40134">
        <ele>40.993408</ele>
        <time>2009-09-02T13:56:25Z</time>
      </trkpt>
      <trkpt lat="49.22438" lon="1.40128">
        <ele>41.473999</ele>
        <time>2009-09-02T13:56:30Z</time>
      </trkpt>
      <trkpt lat="49.22441" lon="1.40123">
        <ele>44.358032</ele>
        <time>2009-09-02T13:56:33Z</time>
      </trkpt>
      <trkpt lat="49.22444" lon="1.4012">
        <ele>44.838623</ele>
        <time>2009-09-02T13:56:34Z</time>
      </trkpt>
      <trkpt lat="49.22461" lon="1.40112">
        <ele>44.358032</ele>
        <time>2009-09-02T13:56:40Z</time>
      </trkpt>
      <trkpt lat="49.22473" lon="1.401">
        <ele>36.66748</ele>
        <time>2009-09-02T13:56:46Z</time>
      </trkpt>
      <trkpt lat="49.22489" lon="1.40086">
        <ele>29.457519</ele>
        <time>2009-09-02T13:56:52Z</time>
      </trkpt>
      <trkpt lat="49.22502" lon="1.40072">
        <ele>27.054321</ele>
        <time>2009-09-02T13:56:57Z</time>
      </trkpt>
      <trkpt lat="49.22512" lon="1.40056">
        <ele>24.651001</ele>
        <time>2009-09-02T13:57:02Z</time>
      </trkpt>
      <trkpt lat="49.22522" lon="1.40035">
        <ele>21.286377</ele>
        <time>2009-09-02T13:57:06Z</time>
      </trkpt>
      <trkpt lat="49.22532" lon="1.40003">
        <ele>12.153808</ele>
        <time>2009-09-02T13:57:12Z</time>
      </trkpt>
      <trkpt lat="49.22542" lon="1.39978">
        <ele>9.7506104</ele>
        <time>2009-09-02T13:57:16Z</time>
      </trkpt>
      <trkpt lat="49.22545" lon="1.39969">
        <ele>9.7506104</ele>
        <time>2009-09-02T13:57:18Z</time>
      </trkpt>
      <trkpt lat="49.22535" lon="1.39958">
        <ele>10.711792</ele>
        <time>2009-09-02T13:57:23Z</time>
      </trkpt>
      <trkpt lat="49.22526" lon="1.39954">
        <ele>10.231201</ele>
        <time>2009-09-02T13:57:26Z</time>
      </trkpt>
      <trkpt lat="49.22519" lon="1.39964">
        <ele>9.7506104</ele>
        <time>2009-09-02T13:57:30Z</time>
      </trkpt>
      <trkpt lat="49.22509" lon="1.39977">
        <ele>10.711792</ele>
        <time>2009-09-02T13:57:36Z</time>
      </trkpt>
      <trkpt lat="49.22505" lon="1.39977">
        <ele>11.192504</ele>
        <time>2009-09-02T13:57:38Z</time>
      </trkpt>
      <trkpt lat="49.22498" lon="1.39976">
        <ele>8.3085938</ele>
        <time>2009-09-02T13:57:43Z</time>
      </trkpt>
      <trkpt lat="49.22494" lon="1.39979">
        <ele>4.9438477</ele>
        <time>2009-09-02T13:57:47Z</time>
      </trkpt>
      <trkpt lat="49.22502" lon="1.39968">
        <ele>3.0212402</ele>
        <time>2009-09-02T13:57:53Z</time>
      </trkpt>
      <trkpt lat="49.22503" lon="1.39972">
        <ele>-3.227294</ele>
        <time>2009-09-02T13:57:58Z</time>
      </trkpt>
      <trkpt lat="49.22504" lon="1.39978">
        <ele>-0.824096</ele>
        <time>2009-09-02T13:58:04Z</time>
      </trkpt>
      <trkpt lat="49.22504" lon="1.39976">
        <ele>3.5019531</ele>
        <time>2009-09-02T13:58:09Z</time>
      </trkpt>
      <trkpt lat="49.22503" lon="1.39975">
        <ele>2.5406494</ele>
        <time>2009-09-02T13:58:11Z</time>
      </trkpt>
      <trkpt lat="49.22495" lon="1.39977">
        <ele>1.0986328</ele>
        <time>2009-09-02T13:58:16Z</time>
      </trkpt>
      <trkpt lat="49.22492" lon="1.39984">
        <ele>3.982666</ele>
        <time>2009-09-02T13:58:23Z</time>
      </trkpt>
      <trkpt lat="49.22494" lon="1.3998">
        <ele>2.0600586</ele>
        <time>2009-09-02T13:58:28Z</time>
      </trkpt>
      <trkpt lat="49.22495" lon="1.3998">
        <ele>2.5406494</ele>
        <time>2009-09-02T13:58:29Z</time>
      </trkpt>
      <trkpt lat="49.22492" lon="1.39981">
        <ele>-2.265991</ele>
        <time>2009-09-02T13:58:32Z</time>
      </trkpt>
      <trkpt lat="49.22493" lon="1.39977">
        <ele>-0.343383</ele>
        <time>2009-09-02T13:58:35Z</time>
      </trkpt>
      <trkpt lat="49.22498" lon="1.39975">
        <ele>-0.824096</ele>
        <time>2009-09-02T13:58:42Z</time>
      </trkpt>
      <trkpt lat="49.22498" lon="1.39977">
        <ele>0.618042</ele>
        <time>2009-09-02T13:58:43Z</time>
      </trkpt>
      <trkpt lat="49.22497" lon="1.39984">
        <ele>-5.149902</ele>
        <time>2009-09-02T13:58:50Z</time>
      </trkpt>
      <trkpt lat="49.22498" lon="1.39985">
        <ele>-6.591918</ele>
        <time>2009-09-02T13:58:59Z</time>
      </trkpt>
      <trkpt lat="49.22502" lon="1.39981">
        <ele>6.8664551</ele>
        <time>2009-09-02T13:59:13Z</time>
      </trkpt>
      <trkpt lat="49.22504" lon="1.3998">
        <ele>8.3085938</ele>
        <time>2009-09-02T13:59:14Z</time>
      </trkpt>
      <trkpt lat="49.22516" lon="1.39969">
        <ele>10.231201</ele>
        <time>2009-09-02T13:59:19Z</time>
      </trkpt>
      <trkpt lat="49.22521" lon="1.39958">
        <ele>11.192504</ele>
        <time>2009-09-02T13:59:23Z</time>
      </trkpt>
      <trkpt lat="49.22529" lon="1.39955">
        <ele>15.999023</ele>
        <time>2009-09-02T13:59:27Z</time>
      </trkpt>
      <trkpt lat="49.22546" lon="1.39963">
        <ele>16.960449</ele>
        <time>2009-09-02T13:59:34Z</time>
      </trkpt>
      <trkpt lat="49.22567" lon="1.39984">
        <ele>15.037719</ele>
        <time>2009-09-02T13:59:40Z</time>
      </trkpt>
      <trkpt lat="49.22589" lon="1.40004">
        <ele>14.557006</ele>
        <time>2009-09-02T13:59:46Z</time>
      </trkpt>
      <trkpt lat="49.22608" lon="1.40022">
        <ele>15.518432</ele>
        <time>2009-09-02T13:59:51Z</time>
      </trkpt>
      <trkpt lat="49.22632" lon="1.40044">
        <ele>18.402343</ele>
        <time>2009-09-02T13:59:57Z</time>
      </trkpt>
      <trkpt lat="49.2266" lon="1.40075">
        <ele>22.247558</ele>
        <time>2009-09-02T14:00:04Z</time>
      </trkpt>
      <trkpt lat="49.22693" lon="1.40103">
        <ele>21.286377</ele>
        <time>2009-09-02T14:00:13Z</time>
      </trkpt>
      <trkpt lat="49.227" lon="1.40108">
        <ele>19.84436</ele>
        <time>2009-09-02T14:00:17Z</time>
      </trkpt>
      <trkpt lat="49.22701" lon="1.4011">
        <ele>20.805664</ele>
        <time>2009-09-02T14:00:26Z</time>
      </trkpt>
      <trkpt lat="49.22702" lon="1.40117">
        <ele>22.247558</ele>
        <time>2009-09-02T14:00:35Z</time>
      </trkpt>
      <trkpt lat="49.22703" lon="1.40118">
        <ele>21.286377</ele>
        <time>2009-09-02T14:00:36Z</time>
      </trkpt>
      <trkpt lat="49.22701" lon="1.40131">
        <ele>19.363769</ele>
        <time>2009-09-02T14:00:41Z</time>
      </trkpt>
      <trkpt lat="49.22697" lon="1.4016">
        <ele>24.651001</ele>
        <time>2009-09-02T14:00:49Z</time>
      </trkpt>
      <trkpt lat="49.22693" lon="1.40177">
        <ele>25.131713</ele>
        <time>2009-09-02T14:00:54Z</time>
      </trkpt>
      <trkpt lat="49.22691" lon="1.40181">
        <ele>25.612304</ele>
        <time>2009-09-02T14:00:59Z</time>
      </trkpt>
      <trkpt lat="49.22691" lon="1.40179">
        <ele>23.689575</ele>
        <time>2009-09-02T14:01:07Z</time>
      </trkpt>
      <trkpt lat="49.22691" lon="1.40176">
        <ele>19.363769</ele>
        <time>2009-09-02T14:01:16Z</time>
      </trkpt>
      <trkpt lat="49.22691" lon="1.40175">
        <ele>18.883056</ele>
        <time>2009-09-02T14:01:22Z</time>
      </trkpt>
      <trkpt lat="49.22692" lon="1.40175">
        <ele>17.441162</ele>
        <time>2009-09-02T14:01:32Z</time>
      </trkpt>
      <trkpt lat="49.22692" lon="1.40175">
        <ele>16.960449</ele>
        <time>2009-09-02T14:01:39Z</time>
      </trkpt>
      <trkpt lat="49.22692" lon="1.40175">
        <ele>16.960449</ele>
        <time>2009-09-02T14:01:46Z</time>
      </trkpt>
      <trkpt lat="49.2269" lon="1.40173">
        <ele>19.84436</ele>
        <time>2009-09-02T14:01:55Z</time>
      </trkpt>
      <trkpt lat="49.2269" lon="1.40175">
        <ele>19.84436</ele>
        <time>2009-09-02T14:02:02Z</time>
      </trkpt>
      <trkpt lat="49.2269" lon="1.40175">
        <ele>23.689575</ele>
        <time>2009-09-02T14:02:13Z</time>
      </trkpt>
      <trkpt lat="49.22689" lon="1.40175">
        <ele>25.612304</ele>
        <time>2009-09-02T14:02:29Z</time>
      </trkpt>
      <trkpt lat="49.2269" lon="1.40175">
        <ele>22.247558</ele>
        <time>2009-09-02T14:02:38Z</time>
      </trkpt>
      <trkpt lat="49.2269" lon="1.40175">
        <ele>19.84436</ele>
        <time>2009-09-02T14:02:45Z</time>
      </trkpt>
      <trkpt lat="49.2269" lon="1.40174">
        <ele>20.805664</ele>
        <time>2009-09-02T14:02:51Z</time>
      </trkpt>
      <trkpt lat="49.22689" lon="1.40175">
        <ele>21.766967</ele>
        <time>2009-09-02T14:03:00Z</time>
      </trkpt>
      <trkpt lat="49.22688" lon="1.40173">
        <ele>23.689575</ele>
        <time>2009-09-02T14:03:24Z</time>
      </trkpt>
      <trkpt lat="49.22688" lon="1.40173">
        <ele>21.766967</ele>
        <time>2009-09-02T14:03:36Z</time>
      </trkpt>
      <trkpt lat="49.22687" lon="1.40173">
        <ele>23.208984</ele>
        <time>2009-09-02T14:03:46Z</time>
      </trkpt>
      <trkpt lat="49.22687" lon="1.40172">
        <ele>22.247558</ele>
        <time>2009-09-02T14:04:00Z</time>
      </trkpt>
      <trkpt lat="49.22686" lon="1.40172">
        <ele>21.766967</ele>
        <time>2009-09-02T14:04:11Z</time>
      </trkpt>
      <trkpt lat="49.22687" lon="1.40173">
        <ele>23.208984</ele>
        <time>2009-09-02T14:04:21Z</time>
      </trkpt>
      <trkpt lat="49.22688" lon="1.40175">
        <ele>23.208984</ele>
        <time>2009-09-02T14:04:31Z</time>
      </trkpt>
      <trkpt lat="49.22687" lon="1.40174">
        <ele>21.286377</ele>
        <time>2009-09-02T14:04:39Z</time>
      </trkpt>
      <trkpt lat="49.22687" lon="1.40173">
        <ele>19.84436</ele>
        <time>2009-09-02T14:04:49Z</time>
      </trkpt>
      <trkpt lat="49.22688" lon="1.40174">
        <ele>19.84436</ele>
        <time>2009-09-02T14:04:59Z</time>
      </trkpt>
      <trkpt lat="49.22688" lon="1.40174">
        <ele>20.324951</ele>
        <time>2009-09-02T14:05:02Z</time>
      </trkpt>
      <trkpt lat="49.22688" lon="1.40174">
        <ele>19.84436</ele>
        <time>2009-09-02T14:05:13Z</time>
      </trkpt>
      <trkpt lat="49.22689" lon="1.40174">
        <ele>20.324951</ele>
        <time>2009-09-02T14:05:31Z</time>
      </trkpt>
      <trkpt lat="49.22689" lon="1.40175">
        <ele>21.286377</ele>
        <time>2009-09-02T14:05:42Z</time>
      </trkpt>
      <trkpt lat="49.22689" lon="1.40175">
        <ele>21.286377</ele>
        <time>2009-09-02T14:05:46Z</time>
      </trkpt>
      <trkpt lat="49.22687" lon="1.40174">
        <ele>20.324951</ele>
        <time>2009-09-02T14:06:02Z</time>
      </trkpt>
      <trkpt lat="49.22688" lon="1.40174">
        <ele>20.324951</ele>
        <time>2009-09-02T14:06:11Z</time>
      </trkpt>
      <trkpt lat="49.22688" lon="1.40175">
        <ele>19.84436</ele>
        <time>2009-09-02T14:06:24Z</time>
      </trkpt>
      <trkpt lat="49.22685" lon="1.40172">
        <ele>22.247558</ele>
        <time>2009-09-02T14:06:41Z</time>
      </trkpt>
      <trkpt lat="49.22685" lon="1.40173">
        <ele>21.286377</ele>
        <time>2009-09-02T14:06:48Z</time>
      </trkpt>
      <trkpt lat="49.22685" lon="1.40175">
        <ele>21.286377</ele>
        <time>2009-09-02T14:06:53Z</time>
      </trkpt>
      <trkpt lat="49.22687" lon="1.40195">
        <ele>23.689575</ele>
        <time>2009-09-02T14:06:59Z</time>
      </trkpt>
      <trkpt lat="49.22684" lon="1.40227">
        <ele>32.822265</ele>
        <time>2009-09-02T14:07:06Z</time>
      </trkpt>
      <trkpt lat="49.22679" lon="1.40257">
        <ele>38.590087</ele>
        <time>2009-09-02T14:07:13Z</time>
      </trkpt>
      <trkpt lat="49.22679" lon="1.40282">
        <ele>44.358032</ele>
        <time>2009-09-02T14:07:19Z</time>
      </trkpt>
      <trkpt lat="49.2268" lon="1.40302">
        <ele>48.203369</ele>
        <time>2009-09-02T14:07:24Z</time>
      </trkpt>
      <trkpt lat="49.2268" lon="1.40324">
        <ele>46.76123</ele>
        <time>2009-09-02T14:07:30Z</time>
      </trkpt>
      <trkpt lat="49.22681" lon="1.40356">
        <ele>41.954711</ele>
        <time>2009-09-02T14:07:38Z</time>
      </trkpt>
      <trkpt lat="49.2268" lon="1.40381">
        <ele>39.070678</ele>
        <time>2009-09-02T14:07:45Z</time>
      </trkpt>
      <trkpt lat="49.22679" lon="1.40417">
        <ele>36.66748</ele>
        <time>2009-09-02T14:07:54Z</time>
      </trkpt>
      <trkpt lat="49.22677" lon="1.40445">
        <ele>37.628662</ele>
        <time>2009-09-02T14:08:01Z</time>
      </trkpt>
      <trkpt lat="49.22671" lon="1.40471">
        <ele>40.032104</ele>
        <time>2009-09-02T14:08:08Z</time>
      </trkpt>
      <trkpt lat="49.2266" lon="1.40495">
        <ele>42.916015</ele>
        <time>2009-09-02T14:08:15Z</time>
      </trkpt>
      <trkpt lat="49.22646" lon="1.40508">
        <ele>46.76123</ele>
        <time>2009-09-02T14:08:23Z</time>
      </trkpt>
      <trkpt lat="49.22632" lon="1.40522">
        <ele>48.203369</ele>
        <time>2009-09-02T14:08:33Z</time>
      </trkpt>
      <trkpt lat="49.22622" lon="1.40535">
        <ele>49.645263</ele>
        <time>2009-09-02T14:08:40Z</time>
      </trkpt>
      <trkpt lat="49.22612" lon="1.40547">
        <ele>51.567871</ele>
        <time>2009-09-02T14:08:47Z</time>
      </trkpt>
      <trkpt lat="49.22608" lon="1.40549">
        <ele>52.529174</ele>
        <time>2009-09-02T14:08:49Z</time>
      </trkpt>
      <trkpt lat="49.22603" lon="1.40542">
        <ele>54.932373</ele>
        <time>2009-09-02T14:08:53Z</time>
      </trkpt>
      <trkpt lat="49.22605" lon="1.40537">
        <ele>57.816528</ele>
        <time>2009-09-02T14:08:56Z</time>
      </trkpt>
      <trkpt lat="49.22609" lon="1.40517">
        <ele>63.58435</ele>
        <time>2009-09-02T14:09:03Z</time>
      </trkpt>
      <trkpt lat="49.22601" lon="1.40513">
        <ele>62.622924</ele>
        <time>2009-09-02T14:09:08Z</time>
      </trkpt>
      <trkpt lat="49.22599" lon="1.40514">
        <ele>62.622924</ele>
        <time>2009-09-02T14:09:09Z</time>
      </trkpt>
      <trkpt lat="49.22593" lon="1.40524">
        <ele>64.065063</ele>
        <time>2009-09-02T14:09:14Z</time>
      </trkpt>
      <trkpt lat="49.22584" lon="1.40544">
        <ele>66.948974</ele>
        <time>2009-09-02T14:09:23Z</time>
      </trkpt>
      <trkpt lat="49.22576" lon="1.40558">
        <ele>67.910278</ele>
        <time>2009-09-02T14:09:30Z</time>
      </trkpt>
      <trkpt lat="49.22562" lon="1.40576">
        <ele>70.313476</ele>
        <time>2009-09-02T14:09:38Z</time>
      </trkpt>
      <trkpt lat="49.22551" lon="1.40591">
        <ele>70.794189</ele>
        <time>2009-09-02T14:09:46Z</time>
      </trkpt>
      <trkpt lat="49.22541" lon="1.40607">
        <ele>71.755493</ele>
        <time>2009-09-02T14:09:54Z</time>
      </trkpt>
      <trkpt lat="49.22535" lon="1.40621">
        <ele>73.197631</ele>
        <time>2009-09-02T14:10:00Z</time>
      </trkpt>
      <trkpt lat="49.22529" lon="1.40637">
        <ele>75.120239</ele>
        <time>2009-09-02T14:10:07Z</time>
      </trkpt>
      <trkpt lat="49.2252" lon="1.40652">
        <ele>78.484741</ele>
        <time>2009-09-02T14:10:14Z</time>
      </trkpt>
      <trkpt lat="49.22517" lon="1.40662">
        <ele>82.330078</ele>
        <time>2009-09-02T14:10:18Z</time>
      </trkpt>
      <trkpt lat="49.22504" lon="1.40673">
        <ele>81.368774</ele>
        <time>2009-09-02T14:10:25Z</time>
      </trkpt>
      <trkpt lat="49.22502" lon="1.40674">
        <ele>83.291381</ele>
        <time>2009-09-02T14:10:27Z</time>
      </trkpt>
      <trkpt lat="49.22488" lon="1.40665">
        <ele>84.252685</ele>
        <time>2009-09-02T14:10:32Z</time>
      </trkpt>
      <trkpt lat="49.22488" lon="1.40658">
        <ele>84.252685</ele>
        <time>2009-09-02T14:10:34Z</time>
      </trkpt>
      <trkpt lat="49.22489" lon="1.40643">
        <ele>86.656005</ele>
        <time>2009-09-02T14:10:38Z</time>
      </trkpt>
      <trkpt lat="49.22504" lon="1.40629">
        <ele>92.42395</ele>
        <time>2009-09-02T14:10:45Z</time>
      </trkpt>
      <trkpt lat="49.22512" lon="1.40617">
        <ele>89.539917</ele>
        <time>2009-09-02T14:10:51Z</time>
      </trkpt>
      <trkpt lat="49.22518" lon="1.40602">
        <ele>89.059326</ele>
        <time>2009-09-02T14:10:56Z</time>
      </trkpt>
      <trkpt lat="49.22524" lon="1.4059">
        <ele>91.462524</ele>
        <time>2009-09-02T14:11:00Z</time>
      </trkpt>
      <trkpt lat="49.22522" lon="1.40563">
        <ele>92.42395</ele>
        <time>2009-09-02T14:11:06Z</time>
      </trkpt>
      <trkpt lat="49.2253" lon="1.4054">
        <ele>91.462524</ele>
        <time>2009-09-02T14:11:12Z</time>
      </trkpt>
      <trkpt lat="49.22535" lon="1.40523">
        <ele>90.981933</ele>
        <time>2009-09-02T14:11:17Z</time>
      </trkpt>
      <trkpt lat="49.22535" lon="1.40502">
        <ele>90.501342</ele>
        <time>2009-09-02T14:11:22Z</time>
      </trkpt>
      <trkpt lat="49.22546" lon="1.40489">
        <ele>92.904541</ele>
        <time>2009-09-02T14:11:26Z</time>
      </trkpt>
      <trkpt lat="49.22555" lon="1.40473">
        <ele>95.788452</ele>
        <time>2009-09-02T14:11:31Z</time>
      </trkpt>
      <trkpt lat="49.22563" lon="1.40454">
        <ele>97.230468</ele>
        <time>2009-09-02T14:11:37Z</time>
      </trkpt>
      <trkpt lat="49.22562" lon="1.4045">
        <ele>94.827148</ele>
        <time>2009-09-02T14:11:38Z</time>
      </trkpt>
      <trkpt lat="49.22546" lon="1.40442">
        <ele>84.252685</ele>
        <time>2009-09-02T14:11:44Z</time>
      </trkpt>
      <trkpt lat="49.2254" lon="1.40456">
        <ele>82.810791</ele>
        <time>2009-09-02T14:11:48Z</time>
      </trkpt>
      <trkpt lat="49.22529" lon="1.40489">
        <ele>84.733398</ele>
        <time>2009-09-02T14:11:57Z</time>
      </trkpt>
      <trkpt lat="49.22519" lon="1.40507">
        <ele>87.617187</ele>
        <time>2009-09-02T14:12:03Z</time>
      </trkpt>
      <trkpt lat="49.22509" lon="1.40523">
        <ele>89.539917</ele>
        <time>2009-09-02T14:12:09Z</time>
      </trkpt>
      <trkpt lat="49.225" lon="1.4054">
        <ele>95.307739</ele>
        <time>2009-09-02T14:12:14Z</time>
      </trkpt>
      <trkpt lat="49.22485" lon="1.40559">
        <ele>95.788452</ele>
        <time>2009-09-02T14:12:21Z</time>
      </trkpt>
      <trkpt lat="49.22472" lon="1.40577">
        <ele>97.711181</ele>
        <time>2009-09-02T14:12:27Z</time>
      </trkpt>
      <trkpt lat="49.22462" lon="1.40589">
        <ele>99.153076</ele>
        <time>2009-09-02T14:12:32Z</time>
      </trkpt>
      <trkpt lat="49.22451" lon="1.40603">
        <ele>99.153076</ele>
        <time>2009-09-02T14:12:38Z</time>
      </trkpt>
      <trkpt lat="49.22439" lon="1.40622">
        <ele>100.59509</ele>
        <time>2009-09-02T14:12:45Z</time>
      </trkpt>
      <trkpt lat="49.22424" lon="1.40641">
        <ele>101.55639</ele>
        <time>2009-09-02T14:12:53Z</time>
      </trkpt>
      <trkpt lat="49.22413" lon="1.40658">
        <ele>101.07568</ele>
        <time>2009-09-02T14:13:00Z</time>
      </trkpt>
      <trkpt lat="49.22401" lon="1.40674">
        <ele>101.55639</ele>
        <time>2009-09-02T14:13:07Z</time>
      </trkpt>
      <trkpt lat="49.22389" lon="1.40692">
        <ele>103.479</ele>
        <time>2009-09-02T14:13:14Z</time>
      </trkpt>
      <trkpt lat="49.22378" lon="1.40713">
        <ele>109.24694</ele>
        <time>2009-09-02T14:13:21Z</time>
      </trkpt>
      <trkpt lat="49.22365" lon="1.40726">
        <ele>110.20825</ele>
        <time>2009-09-02T14:13:28Z</time>
      </trkpt>
      <trkpt lat="49.22353" lon="1.40731">
        <ele>112.13098</ele>
        <time>2009-09-02T14:13:34Z</time>
      </trkpt>
      <trkpt lat="49.22341" lon="1.40733">
        <ele>114.05358</ele>
        <time>2009-09-02T14:13:40Z</time>
      </trkpt>
      <trkpt lat="49.22327" lon="1.40735">
        <ele>118.8601</ele>
        <time>2009-09-02T14:13:47Z</time>
      </trkpt>
      <trkpt lat="49.22315" lon="1.40736">
        <ele>124.14733</ele>
        <time>2009-09-02T14:13:52Z</time>
      </trkpt>
      <trkpt lat="49.22303" lon="1.40738">
        <ele>126.06994</ele>
        <time>2009-09-02T14:13:59Z</time>
      </trkpt>
      <trkpt lat="49.22297" lon="1.40743">
        <ele>129.91528</ele>
        <time>2009-09-02T14:14:04Z</time>
      </trkpt>
      <trkpt lat="49.22297" lon="1.40734">
        <ele>125.10876</ele>
        <time>2009-09-02T14:14:09Z</time>
      </trkpt>
      <trkpt lat="49.223" lon="1.40732">
        <ele>125.58935</ele>
        <time>2009-09-02T14:14:17Z</time>
      </trkpt>
      <trkpt lat="49.22297" lon="1.40738">
        <ele>131.83789</ele>
        <time>2009-09-02T14:14:20Z</time>
      </trkpt>
      <trkpt lat="49.2229" lon="1.40746">
        <ele>132.79931</ele>
        <time>2009-09-02T14:14:27Z</time>
      </trkpt>
      <trkpt lat="49.22284" lon="1.40755">
        <ele>129.91528</ele>
        <time>2009-09-02T14:14:34Z</time>
      </trkpt>
      <trkpt lat="49.2228" lon="1.40767">
        <ele>130.8767</ele>
        <time>2009-09-02T14:14:40Z</time>
      </trkpt>
      <trkpt lat="49.22273" lon="1.40781">
        <ele>134.24121</ele>
        <time>2009-09-02T14:14:45Z</time>
      </trkpt>
      <trkpt lat="49.22265" lon="1.408">
        <ele>135.6831</ele>
        <time>2009-09-02T14:14:52Z</time>
      </trkpt>
      <trkpt lat="49.22257" lon="1.4082">
        <ele>136.64465</ele>
        <time>2009-09-02T14:14:59Z</time>
      </trkpt>
      <trkpt lat="49.22256" lon="1.40838">
        <ele>138.56726</ele>
        <time>2009-09-02T14:15:05Z</time>
      </trkpt>
      <trkpt lat="49.22252" lon="1.40852">
        <ele>135.6831</ele>
        <time>2009-09-02T14:15:11Z</time>
      </trkpt>
      <trkpt lat="49.22245" lon="1.40869">
        <ele>134.72192</ele>
        <time>2009-09-02T14:15:17Z</time>
      </trkpt>
      <trkpt lat="49.22236" lon="1.40888">
        <ele>134.24121</ele>
        <time>2009-09-02T14:15:24Z</time>
      </trkpt>
      <trkpt lat="49.22225" lon="1.40905">
        <ele>134.24121</ele>
        <time>2009-09-02T14:15:31Z</time>
      </trkpt>
      <trkpt lat="49.2221" lon="1.40929">
        <ele>135.6831</ele>
        <time>2009-09-02T14:15:40Z</time>
      </trkpt>
      <trkpt lat="49.22192" lon="1.4096">
        <ele>138.08654</ele>
        <time>2009-09-02T14:15:52Z</time>
      </trkpt>
      <trkpt lat="49.22181" lon="1.40989">
        <ele>140.00915</ele>
        <time>2009-09-02T14:16:02Z</time>
      </trkpt>
      <trkpt lat="49.22174" lon="1.41012">
        <ele>140.97045</ele>
        <time>2009-09-02T14:16:10Z</time>
      </trkpt>
      <trkpt lat="49.22167" lon="1.41015">
        <ele>140.97045</ele>
        <time>2009-09-02T14:16:14Z</time>
      </trkpt>
      <trkpt lat="49.22158" lon="1.4099">
        <ele>140.48986</ele>
        <time>2009-09-02T14:16:21Z</time>
      </trkpt>
      <trkpt lat="49.22145" lon="1.40947">
        <ele>140.48986</ele>
        <time>2009-09-02T14:16:31Z</time>
      </trkpt>
      <trkpt lat="49.22129" lon="1.40901">
        <ele>140.00915</ele>
        <time>2009-09-02T14:16:42Z</time>
      </trkpt>
      <trkpt lat="49.22124" lon="1.40884">
        <ele>140.48986</ele>
        <time>2009-09-02T14:16:46Z</time>
      </trkpt>
      <trkpt lat="49.22134" lon="1.40859">
        <ele>140.00915</ele>
        <time>2009-09-02T14:16:52Z</time>
      </trkpt>
      <trkpt lat="49.22145" lon="1.40832">
        <ele>140.97045</ele>
        <time>2009-09-02T14:16:57Z</time>
      </trkpt>
      <trkpt lat="49.22166" lon="1.40787">
        <ele>140.00915</ele>
        <time>2009-09-02T14:17:05Z</time>
      </trkpt>
      <trkpt lat="49.22192" lon="1.4073">
        <ele>141.45104</ele>
        <time>2009-09-02T14:17:14Z</time>
      </trkpt>
      <trkpt lat="49.22208" lon="1.40695">
        <ele>141.45104</ele>
        <time>2009-09-02T14:17:20Z</time>
      </trkpt>
      <trkpt lat="49.22227" lon="1.40661">
        <ele>139.04785</ele>
        <time>2009-09-02T14:17:27Z</time>
      </trkpt>
      <trkpt lat="49.22245" lon="1.40633">
        <ele>137.12524</ele>
        <time>2009-09-02T14:17:33Z</time>
      </trkpt>
      <trkpt lat="49.22247" lon="1.40629">
        <ele>136.64465</ele>
        <time>2009-09-02T14:17:34Z</time>
      </trkpt>
      <trkpt lat="49.22255" lon="1.40612">
        <ele>138.56726</ele>
        <time>2009-09-02T14:17:37Z</time>
      </trkpt>
      <trkpt lat="49.22268" lon="1.40594">
        <ele>137.60583</ele>
        <time>2009-09-02T14:17:42Z</time>
      </trkpt>
      <trkpt lat="49.2228" lon="1.40573">
        <ele>134.72192</ele>
        <time>2009-09-02T14:17:46Z</time>
      </trkpt>
      <trkpt lat="49.22282" lon="1.40568">
        <ele>135.20251</ele>
        <time>2009-09-02T14:17:47Z</time>
      </trkpt>
      <trkpt lat="49.22291" lon="1.40551">
        <ele>134.24121</ele>
        <time>2009-09-02T14:17:52Z</time>
      </trkpt>
      <trkpt lat="49.22292" lon="1.40548">
        <ele>134.72192</ele>
        <time>2009-09-02T14:17:53Z</time>
      </trkpt>
      <trkpt lat="49.22285" lon="1.40539">
        <ele>131.35729</ele>
        <time>2009-09-02T14:17:58Z</time>
      </trkpt>
      <trkpt lat="49.22282" lon="1.40528">
        <ele>130.8767</ele>
        <time>2009-09-02T14:18:01Z</time>
      </trkpt>
      <trkpt lat="49.22286" lon="1.40509">
        <ele>127.03137</ele>
        <time>2009-09-02T14:18:07Z</time>
      </trkpt>
      <trkpt lat="49.22289" lon="1.40491">
        <ele>126.55065</ele>
        <time>2009-09-02T14:18:11Z</time>
      </trkpt>
      <trkpt lat="49.22289" lon="1.40472">
        <ele>126.55065</ele>
        <time>2009-09-02T14:18:16Z</time>
      </trkpt>
      <trkpt lat="49.22295" lon="1.40455">
        <ele>125.10876</ele>
        <time>2009-09-02T14:18:21Z</time>
      </trkpt>
      <trkpt lat="49.223" lon="1.40435">
        <ele>128.47338</ele>
        <time>2009-09-02T14:18:26Z</time>
      </trkpt>
      <trkpt lat="49.22301" lon="1.40426">
        <ele>124.62805</ele>
        <time>2009-09-02T14:18:32Z</time>
      </trkpt>
      <trkpt lat="49.22299" lon="1.40426">
        <ele>124.14733</ele>
        <time>2009-09-02T14:18:33Z</time>
      </trkpt>
      <trkpt lat="49.22291" lon="1.40425">
        <ele>121.26354</ele>
        <time>2009-09-02T14:18:38Z</time>
      </trkpt>
      <trkpt lat="49.22278" lon="1.40423">
        <ele>117.41821</ele>
        <time>2009-09-02T14:18:44Z</time>
      </trkpt>
      <trkpt lat="49.22275" lon="1.40411">
        <ele>114.05358</ele>
        <time>2009-09-02T14:18:49Z</time>
      </trkpt>
      <trkpt lat="49.22273" lon="1.40408">
        <ele>114.05358</ele>
        <time>2009-09-02T14:18:50Z</time>
      </trkpt>
      <trkpt lat="49.22272" lon="1.40402">
        <ele>112.13098</ele>
        <time>2009-09-02T14:18:53Z</time>
      </trkpt>
      <trkpt lat="49.22277" lon="1.40393">
        <ele>108.28564</ele>
        <time>2009-09-02T14:18:57Z</time>
      </trkpt>
      <trkpt lat="49.22291" lon="1.40374">
        <ele>101.55639</ele>
        <time>2009-09-02T14:19:04Z</time>
      </trkpt>
      <trkpt lat="49.22306" lon="1.40356">
        <ele>97.711181</ele>
        <time>2009-09-02T14:19:09Z</time>
      </trkpt>
      <trkpt lat="49.22319" lon="1.40343">
        <ele>93.865844</ele>
        <time>2009-09-02T14:19:13Z</time>
      </trkpt>
      <trkpt lat="49.22338" lon="1.40329">
        <ele>90.501342</ele>
        <time>2009-09-02T14:19:19Z</time>
      </trkpt>
      <trkpt lat="49.2233" lon="1.40323">
        <ele>88.098022</ele>
        <time>2009-09-02T14:19:23Z</time>
      </trkpt>
      <trkpt lat="49.22323" lon="1.40321">
        <ele>86.656005</ele>
        <time>2009-09-02T14:19:25Z</time>
      </trkpt>
      <trkpt lat="49.2231" lon="1.40306">
        <ele>91.943237</ele>
        <time>2009-09-02T14:19:31Z</time>
      </trkpt>
      <trkpt lat="49.22306" lon="1.40297">
        <ele>96.749877</ele>
        <time>2009-09-02T14:19:36Z</time>
      </trkpt>
      <trkpt lat="49.2231" lon="1.40299">
        <ele>97.230468</ele>
        <time>2009-09-02T14:19:37Z</time>
      </trkpt>
      <trkpt lat="49.22317" lon="1.40299">
        <ele>95.788452</ele>
        <time>2009-09-02T14:19:41Z</time>
      </trkpt>
      <trkpt lat="49.22326" lon="1.40308">
        <ele>89.059326</ele>
        <time>2009-09-02T14:19:48Z</time>
      </trkpt>
      <trkpt lat="49.22328" lon="1.40303">
        <ele>89.539917</ele>
        <time>2009-09-02T14:19:51Z</time>
      </trkpt>
      <trkpt lat="49.22345" lon="1.40297">
        <ele>85.69458</ele>
        <time>2009-09-02T14:19:58Z</time>
      </trkpt>
      <trkpt lat="49.22344" lon="1.40286">
        <ele>84.252685</ele>
        <time>2009-09-02T14:20:04Z</time>
      </trkpt>
      <trkpt lat="49.22345" lon="1.40284">
        <ele>85.213989</ele>
        <time>2009-09-02T14:20:06Z</time>
      </trkpt>
      <trkpt lat="49.22357" lon="1.40291">
        <ele>85.213989</ele>
        <time>2009-09-02T14:20:12Z</time>
      </trkpt>
      <trkpt lat="49.22359" lon="1.40288">
        <ele>88.578735</ele>
        <time>2009-09-02T14:20:15Z</time>
      </trkpt>
      <trkpt lat="49.22356" lon="1.40285">
        <ele>89.539917</ele>
        <time>2009-09-02T14:20:17Z</time>
      </trkpt>
      <trkpt lat="49.22352" lon="1.40283">
        <ele>88.578735</ele>
        <time>2009-09-02T14:20:19Z</time>
      </trkpt>
      <trkpt lat="49.22355" lon="1.40278">
        <ele>83.771972</ele>
        <time>2009-09-02T14:20:24Z</time>
      </trkpt>
      <trkpt lat="49.2236" lon="1.40269">
        <ele>80.888183</ele>
        <time>2009-09-02T14:20:27Z</time>
      </trkpt>
      <trkpt lat="49.22347" lon="1.40242">
        <ele>79.926635</ele>
        <time>2009-09-02T14:20:34Z</time>
      </trkpt>
      <trkpt lat="49.22358" lon="1.40224">
        <ele>81.368774</ele>
        <time>2009-09-02T14:20:41Z</time>
      </trkpt>
      <trkpt lat="49.22361" lon="1.4022">
        <ele>80.40747</ele>
        <time>2009-09-02T14:20:43Z</time>
      </trkpt>
      <trkpt lat="49.22378" lon="1.40206">
        <ele>75.120239</ele>
        <time>2009-09-02T14:20:48Z</time>
      </trkpt>
      <trkpt lat="49.22396" lon="1.40194">
        <ele>74.639526</ele>
        <time>2009-09-02T14:20:52Z</time>
      </trkpt>
      <trkpt lat="49.22402" lon="1.40184">
        <ele>74.158813</ele>
        <time>2009-09-02T14:20:55Z</time>
      </trkpt>
      <trkpt lat="49.22412" lon="1.40172">
        <ele>71.755493</ele>
        <time>2009-09-02T14:20:59Z</time>
      </trkpt>
      <trkpt lat="49.22417" lon="1.40158">
        <ele>66.468261</ele>
        <time>2009-09-02T14:21:04Z</time>
      </trkpt>
      <trkpt lat="49.22429" lon="1.40148">
        <ele>67.429687</ele>
        <time>2009-09-02T14:21:08Z</time>
      </trkpt>
      <trkpt lat="49.22435" lon="1.40138">
        <ele>66.948974</ele>
        <time>2009-09-02T14:21:12Z</time>
      </trkpt>
      <trkpt lat="49.22437" lon="1.40138">
        <ele>58.77771</ele>
        <time>2009-09-02T14:21:19Z</time>
      </trkpt>
      <trkpt lat="49.22436" lon="1.40133">
        <ele>50.606567</ele>
        <time>2009-09-02T14:21:26Z</time>
      </trkpt>
      <trkpt lat="49.22441" lon="1.40128">
        <ele>47.241821</ele>
        <time>2009-09-02T14:21:31Z</time>
      </trkpt>
      <trkpt lat="49.2245" lon="1.40119">
        <ele>44.838623</ele>
        <time>2009-09-02T14:21:35Z</time>
      </trkpt>
      <trkpt lat="49.22465" lon="1.40106">
        <ele>49.16455</ele>
        <time>2009-09-02T14:21:41Z</time>
      </trkpt>
      <trkpt lat="49.22481" lon="1.401">
        <ele>47.241821</ele>
        <time>2009-09-02T14:21:47Z</time>
      </trkpt>
      <trkpt lat="49.22491" lon="1.40088">
        <ele>47.241821</ele>
        <time>2009-09-02T14:21:51Z</time>
      </trkpt>
      <trkpt lat="49.22505" lon="1.40071">
        <ele>42.916015</ele>
        <time>2009-09-02T14:21:56Z</time>
      </trkpt>
      <trkpt lat="49.2252" lon="1.40058">
        <ele>38.590087</ele>
        <time>2009-09-02T14:21:59Z</time>
      </trkpt>
      <trkpt lat="49.22529" lon="1.40029">
        <ele>29.93811</ele>
        <time>2009-09-02T14:22:03Z</time>
      </trkpt>
      <trkpt lat="49.22537" lon="1.39991">
        <ele>20.324951</ele>
        <time>2009-09-02T14:22:07Z</time>
      </trkpt>
      <trkpt lat="49.22547" lon="1.39969">
        <ele>17.921752</ele>
        <time>2009-09-02T14:22:10Z</time>
      </trkpt>
      <trkpt lat="49.2255" lon="1.39962">
        <ele>15.518432</ele>
        <time>2009-09-02T14:22:12Z</time>
      </trkpt>
      <trkpt lat="49.22553" lon="1.39964">
        <ele>11.192504</ele>
        <time>2009-09-02T14:22:15Z</time>
      </trkpt>
      <trkpt lat="49.22568" lon="1.39986">
        <ele>6.3858643</ele>
        <time>2009-09-02T14:22:21Z</time>
      </trkpt>
      <trkpt lat="49.22586" lon="1.40005">
        <ele>5.9052734</ele>
        <time>2009-09-02T14:22:26Z</time>
      </trkpt>
      <trkpt lat="49.22604" lon="1.40023">
        <ele>5.4245605</ele>
        <time>2009-09-02T14:22:31Z</time>
      </trkpt>
      <trkpt lat="49.22609" lon="1.4003">
        <ele>6.8664551</ele>
        <time>2009-09-02T14:22:33Z</time>
      </trkpt>
      <trkpt lat="49.22636" lon="1.40058">
        <ele>9.2698975</ele>
        <time>2009-09-02T14:22:40Z</time>
      </trkpt>
      <trkpt lat="49.22655" lon="1.40078">
        <ele>10.711792</ele>
        <time>2009-09-02T14:22:45Z</time>
      </trkpt>
      <trkpt lat="49.22678" lon="1.40099">
        <ele>12.634399</ele>
        <time>2009-09-02T14:22:51Z</time>
      </trkpt>
      <trkpt lat="49.22697" lon="1.4011">
        <ele>14.557006</ele>
        <time>2009-09-02T14:22:57Z</time>
      </trkpt>
      <trkpt lat="49.22699" lon="1.40124">
        <ele>15.037719</ele>
        <time>2009-09-02T14:23:02Z</time>
      </trkpt>
      <trkpt lat="49.22694" lon="1.40141">
        <ele>18.402343</ele>
        <time>2009-09-02T14:23:08Z</time>
      </trkpt>
      <trkpt lat="49.2269" lon="1.40167">
        <ele>20.805664</ele>
        <time>2009-09-02T14:23:15Z</time>
      </trkpt>
      <trkpt lat="49.22685" lon="1.40196">
        <ele>24.651001</ele>
        <time>2009-09-02T14:23:23Z</time>
      </trkpt>
      <trkpt lat="49.22682" lon="1.40222">
        <ele>28.015502</ele>
        <time>2009-09-02T14:23:30Z</time>
      </trkpt>
      <trkpt lat="49.22677" lon="1.40252">
        <ele>31.380127</ele>
        <time>2009-09-02T14:23:38Z</time>
      </trkpt>
      <trkpt lat="49.22676" lon="1.40271">
        <ele>32.341552</ele>
        <time>2009-09-02T14:23:43Z</time>
      </trkpt>
      <trkpt lat="49.22682" lon="1.40294">
        <ele>32.822265</ele>
        <time>2009-09-02T14:23:49Z</time>
      </trkpt>
      <trkpt lat="49.22686" lon="1.40324">
        <ele>31.860717</ele>
        <time>2009-09-02T14:23:57Z</time>
      </trkpt>
      <trkpt lat="49.22684" lon="1.40368">
        <ele>32.341552</ele>
        <time>2009-09-02T14:24:09Z</time>
      </trkpt>
      <trkpt lat="49.22681" lon="1.404">
        <ele>33.783447</ele>
        <time>2009-09-02T14:24:18Z</time>
      </trkpt>
      <trkpt lat="49.22677" lon="1.40437">
        <ele>35.706054</ele>
        <time>2009-09-02T14:24:28Z</time>
      </trkpt>
      <trkpt lat="49.22674" lon="1.40459">
        <ele>38.109375</ele>
        <time>2009-09-02T14:24:34Z</time>
      </trkpt>
      <trkpt lat="49.22673" lon="1.40481">
        <ele>40.993408</ele>
        <time>2009-09-02T14:24:40Z</time>
      </trkpt>
      <trkpt lat="49.22662" lon="1.40497">
        <ele>42.435424</ele>
        <time>2009-09-02T14:24:46Z</time>
      </trkpt>
      <trkpt lat="49.22649" lon="1.40509">
        <ele>45.319213</ele>
        <time>2009-09-02T14:24:53Z</time>
      </trkpt>
      <trkpt lat="49.22639" lon="1.40518">
        <ele>46.76123</ele>
        <time>2009-09-02T14:24:59Z</time>
      </trkpt>
      <trkpt lat="49.22628" lon="1.40531">
        <ele>48.203369</ele>
        <time>2009-09-02T14:25:06Z</time>
      </trkpt>
      <trkpt lat="49.22615" lon="1.40544">
        <ele>48.68396</ele>
        <time>2009-09-02T14:25:13Z</time>
      </trkpt>
      <trkpt lat="49.2261" lon="1.40548">
        <ele>49.16455</ele>
        <time>2009-09-02T14:25:16Z</time>
      </trkpt>
      <trkpt lat="49.22599" lon="1.40536">
        <ele>53.490478</ele>
        <time>2009-09-02T14:25:22Z</time>
      </trkpt>
      <trkpt lat="49.22601" lon="1.40533">
        <ele>55.413085</ele>
        <time>2009-09-02T14:25:24Z</time>
      </trkpt>
      <trkpt lat="49.22607" lon="1.40523">
        <ele>59.739135</ele>
        <time>2009-09-02T14:25:29Z</time>
      </trkpt>
      <trkpt lat="49.22605" lon="1.40512">
        <ele>57.816528</ele>
        <time>2009-09-02T14:25:34Z</time>
      </trkpt>
      <trkpt lat="49.22596" lon="1.40514">
        <ele>57.816528</ele>
        <time>2009-09-02T14:25:40Z</time>
      </trkpt>
      <trkpt lat="49.22586" lon="1.40533">
        <ele>61.18103</ele>
        <time>2009-09-02T14:25:48Z</time>
      </trkpt>
      <trkpt lat="49.22577" lon="1.40549">
        <ele>65.026367</ele>
        <time>2009-09-02T14:25:55Z</time>
      </trkpt>
      <trkpt lat="49.2257" lon="1.40558">
        <ele>65.50708</ele>
        <time>2009-09-02T14:26:00Z</time>
      </trkpt>
      <trkpt lat="49.22557" lon="1.40576">
        <ele>65.50708</ele>
        <time>2009-09-02T14:26:08Z</time>
      </trkpt>
      <trkpt lat="49.22546" lon="1.40588">
        <ele>67.910278</ele>
        <time>2009-09-02T14:26:14Z</time>
      </trkpt>
      <trkpt lat="49.22532" lon="1.40605">
        <ele>72.716918</ele>
        <time>2009-09-02T14:26:21Z</time>
      </trkpt>
      <trkpt lat="49.22523" lon="1.40621">
        <ele>75.60083</ele>
        <time>2009-09-02T14:26:27Z</time>
      </trkpt>
      <trkpt lat="49.22508" lon="1.40637">
        <ele>88.098022</ele>
        <time>2009-09-02T14:26:33Z</time>
      </trkpt>
      <trkpt lat="49.2249" lon="1.40657">
        <ele>98.672485</ele>
        <time>2009-09-02T14:26:41Z</time>
      </trkpt>
      <trkpt lat="49.2249" lon="1.4067">
        <ele>102.5177</ele>
        <time>2009-09-02T14:26:46Z</time>
      </trkpt>
      <trkpt lat="49.2249" lon="1.40676">
        <ele>106.36303</ele>
        <time>2009-09-02T14:26:50Z</time>
      </trkpt>
      <trkpt lat="49.22489" lon="1.40674">
        <ele>104.44042</ele>
        <time>2009-09-02T14:26:51Z</time>
      </trkpt>
      <trkpt lat="49.22492" lon="1.40667">
        <ele>101.07568</ele>
        <time>2009-09-02T14:26:54Z</time>
      </trkpt>
      <trkpt lat="49.22494" lon="1.40644">
        <ele>102.5177</ele>
        <time>2009-09-02T14:27:00Z</time>
      </trkpt>
      <trkpt lat="49.22504" lon="1.40626">
        <ele>109.72766</ele>
        <time>2009-09-02T14:27:06Z</time>
      </trkpt>
      <trkpt lat="49.22511" lon="1.40617">
        <ele>109.24694</ele>
        <time>2009-09-02T14:27:09Z</time>
      </trkpt>
      <trkpt lat="49.22511" lon="1.40607">
        <ele>100.59509</ele>
        <time>2009-09-02T14:27:12Z</time>
      </trkpt>
      <trkpt lat="49.22513" lon="1.40592">
        <ele>91.943237</ele>
        <time>2009-09-02T14:27:16Z</time>
      </trkpt>
      <trkpt lat="49.22522" lon="1.40572">
        <ele>84.733398</ele>
        <time>2009-09-02T14:27:22Z</time>
      </trkpt>
      <trkpt lat="49.22532" lon="1.40555">
        <ele>85.69458</ele>
        <time>2009-09-02T14:27:27Z</time>
      </trkpt>
      <trkpt lat="49.22533" lon="1.40551">
        <ele>85.69458</ele>
        <time>2009-09-02T14:27:28Z</time>
      </trkpt>
      <trkpt lat="49.22535" lon="1.40528">
        <ele>82.810791</ele>
        <time>2009-09-02T14:27:35Z</time>
      </trkpt>
      <trkpt lat="49.22543" lon="1.4051">
        <ele>85.213989</ele>
        <time>2009-09-02T14:27:41Z</time>
      </trkpt>
      <trkpt lat="49.22544" lon="1.40504">
        <ele>86.175293</ele>
        <time>2009-09-02T14:27:43Z</time>
      </trkpt>
      <trkpt lat="49.22544" lon="1.40489">
        <ele>86.656005</ele>
        <time>2009-09-02T14:27:47Z</time>
      </trkpt>
      <trkpt lat="49.22542" lon="1.40469">
        <ele>87.617187</ele>
        <time>2009-09-02T14:27:52Z</time>
      </trkpt>
      <trkpt lat="49.22552" lon="1.40448">
        <ele>92.42395</ele>
        <time>2009-09-02T14:27:58Z</time>
      </trkpt>
      <trkpt lat="49.22543" lon="1.40439">
        <ele>91.462524</ele>
        <time>2009-09-02T14:28:03Z</time>
      </trkpt>
      <trkpt lat="49.22537" lon="1.40453">
        <ele>92.42395</ele>
        <time>2009-09-02T14:28:07Z</time>
      </trkpt>
      <trkpt lat="49.22537" lon="1.40458">
        <ele>91.462524</ele>
        <time>2009-09-02T14:28:08Z</time>
      </trkpt>
      <trkpt lat="49.22533" lon="1.4048">
        <ele>91.462524</ele>
        <time>2009-09-02T14:28:14Z</time>
      </trkpt>
      <trkpt lat="49.22524" lon="1.40497">
        <ele>91.943237</ele>
        <time>2009-09-02T14:28:20Z</time>
      </trkpt>
      <trkpt lat="49.22515" lon="1.40513">
        <ele>93.385131</ele>
        <time>2009-09-02T14:28:26Z</time>
      </trkpt>
      <trkpt lat="49.22503" lon="1.40527">
        <ele>90.981933</ele>
        <time>2009-09-02T14:28:33Z</time>
      </trkpt>
      <trkpt lat="49.22493" lon="1.40538">
        <ele>90.020629</ele>
        <time>2009-09-02T14:28:39Z</time>
      </trkpt>
      <trkpt lat="49.22482" lon="1.40554">
        <ele>89.539917</ele>
        <time>2009-09-02T14:28:46Z</time>
      </trkpt>
      <trkpt lat="49.22471" lon="1.40568">
        <ele>90.020629</ele>
        <time>2009-09-02T14:28:52Z</time>
      </trkpt>
      <trkpt lat="49.22458" lon="1.40588">
        <ele>92.904541</ele>
        <time>2009-09-02T14:28:59Z</time>
      </trkpt>
      <trkpt lat="49.22449" lon="1.406">
        <ele>94.346557</ele>
        <time>2009-09-02T14:29:04Z</time>
      </trkpt>
      <trkpt lat="49.22441" lon="1.40614">
        <ele>97.230468</ele>
        <time>2009-09-02T14:29:09Z</time>
      </trkpt>
      <trkpt lat="49.22431" lon="1.40632">
        <ele>100.1145</ele>
        <time>2009-09-02T14:29:16Z</time>
      </trkpt>
      <trkpt lat="49.22421" lon="1.4065">
        <ele>102.0371</ele>
        <time>2009-09-02T14:29:23Z</time>
      </trkpt>
      <trkpt lat="49.22404" lon="1.40672">
        <ele>103.479</ele>
        <time>2009-09-02T14:29:32Z</time>
      </trkpt>
      <trkpt lat="49.22388" lon="1.40691">
        <ele>102.99829</ele>
        <time>2009-09-02T14:29:41Z</time>
      </trkpt>
      <trkpt lat="49.22376" lon="1.40709">
        <ele>104.92102</ele>
        <time>2009-09-02T14:29:49Z</time>
      </trkpt>
      <trkpt lat="49.22368" lon="1.4072">
        <ele>107.32434</ele>
        <time>2009-09-02T14:29:54Z</time>
      </trkpt>
      <trkpt lat="49.22362" lon="1.40729">
        <ele>111.65026</ele>
        <time>2009-09-02T14:29:58Z</time>
      </trkpt>
      <trkpt lat="49.22347" lon="1.40737">
        <ele>116.9375</ele>
        <time>2009-09-02T14:30:05Z</time>
      </trkpt>
      <trkpt lat="49.2233" lon="1.40736">
        <ele>118.37939</ele>
        <time>2009-09-02T14:30:12Z</time>
      </trkpt>
      <trkpt lat="49.22315" lon="1.40735">
        <ele>123.66674</ele>
        <time>2009-09-02T14:30:18Z</time>
      </trkpt>
      <trkpt lat="49.223" lon="1.40738">
        <ele>124.14733</ele>
        <time>2009-09-02T14:30:26Z</time>
      </trkpt>
      <trkpt lat="49.22291" lon="1.40745">
        <ele>128.47338</ele>
        <time>2009-09-02T14:30:32Z</time>
      </trkpt>
      <trkpt lat="49.22284" lon="1.40755">
        <ele>132.79931</ele>
        <time>2009-09-02T14:30:39Z</time>
      </trkpt>
      <trkpt lat="49.22278" lon="1.40767">
        <ele>136.64465</ele>
        <time>2009-09-02T14:30:45Z</time>
      </trkpt>
      <trkpt lat="49.22266" lon="1.40783">
        <ele>144.3352</ele>
        <time>2009-09-02T14:30:52Z</time>
      </trkpt>
      <trkpt lat="49.2226" lon="1.40801">
        <ele>149.62231</ele>
        <time>2009-09-02T14:30:59Z</time>
      </trkpt>
      <trkpt lat="49.22257" lon="1.40819">
        <ele>150.58361</ele>
        <time>2009-09-02T14:31:05Z</time>
      </trkpt>
      <trkpt lat="49.22256" lon="1.40838">
        <ele>145.29638</ele>
        <time>2009-09-02T14:31:12Z</time>
      </trkpt>
      <trkpt lat="49.22253" lon="1.40855">
        <ele>139.52844</ele>
        <time>2009-09-02T14:31:19Z</time>
      </trkpt>
      <trkpt lat="49.22247" lon="1.40872">
        <ele>133.2799</ele>
        <time>2009-09-02T14:31:26Z</time>
      </trkpt>
      <trkpt lat="49.22236" lon="1.40892">
        <ele>130.8767</ele>
        <time>2009-09-02T14:31:34Z</time>
      </trkpt>
      <trkpt lat="49.22219" lon="1.40919">
        <ele>132.3186</ele>
        <time>2009-09-02T14:31:44Z</time>
      </trkpt>
      <trkpt lat="49.22202" lon="1.40945">
        <ele>134.72192</ele>
        <time>2009-09-02T14:31:53Z</time>
      </trkpt>
      <trkpt lat="49.22186" lon="1.40976">
        <ele>136.64465</ele>
        <time>2009-09-02T14:32:02Z</time>
      </trkpt>
      <trkpt lat="49.22179" lon="1.40998">
        <ele>137.12524</ele>
        <time>2009-09-02T14:32:09Z</time>
      </trkpt>
      <trkpt lat="49.22173" lon="1.41014">
        <ele>137.60583</ele>
        <time>2009-09-02T14:32:14Z</time>
      </trkpt>
      <trkpt lat="49.22166" lon="1.41011">
        <ele>137.60583</ele>
        <time>2009-09-02T14:32:18Z</time>
      </trkpt>
      <trkpt lat="49.22165" lon="1.41009">
        <ele>137.12524</ele>
        <time>2009-09-02T14:32:19Z</time>
      </trkpt>
      <trkpt lat="49.22158" lon="1.40987">
        <ele>136.64465</ele>
        <time>2009-09-02T14:32:27Z</time>
      </trkpt>
      <trkpt lat="49.22148" lon="1.40954">
        <ele>137.12524</ele>
        <time>2009-09-02T14:32:37Z</time>
      </trkpt>
      <trkpt lat="49.22137" lon="1.40923">
        <ele>138.56726</ele>
        <time>2009-09-02T14:32:46Z</time>
      </trkpt>
      <trkpt lat="49.22129" lon="1.40901">
        <ele>140.97045</ele>
        <time>2009-09-02T14:32:53Z</time>
      </trkpt>
      <trkpt lat="49.22126" lon="1.40896">
        <ele>141.45104</ele>
        <time>2009-09-02T14:32:56Z</time>
      </trkpt>
      <trkpt lat="49.22124" lon="1.40875">
        <ele>141.45104</ele>
        <time>2009-09-02T14:33:02Z</time>
      </trkpt>
      <trkpt lat="49.22126" lon="1.40871">
        <ele>141.45104</ele>
        <time>2009-09-02T14:33:03Z</time>
      </trkpt>
      <trkpt lat="49.2214" lon="1.4084">
        <ele>141.93176</ele>
        <time>2009-09-02T14:33:10Z</time>
      </trkpt>
      <trkpt lat="49.22143" lon="1.40827">
        <ele>142.89306</ele>
        <time>2009-09-02T14:33:14Z</time>
      </trkpt>
      <trkpt lat="49.22152" lon="1.40808">
        <ele>142.89306</ele>
        <time>2009-09-02T14:33:19Z</time>
      </trkpt>
      <trkpt lat="49.22167" lon="1.40777">
        <ele>142.89306</ele>
        <time>2009-09-02T14:33:26Z</time>
      </trkpt>
      <trkpt lat="49.2218" lon="1.40755">
        <ele>140.97045</ele>
        <time>2009-09-02T14:33:32Z</time>
      </trkpt>
      <trkpt lat="49.22192" lon="1.40729">
        <ele>140.00915</ele>
        <time>2009-09-02T14:33:38Z</time>
      </trkpt>
      <trkpt lat="49.22209" lon="1.40692">
        <ele>140.00915</ele>
        <time>2009-09-02T14:33:46Z</time>
      </trkpt>
      <trkpt lat="49.22219" lon="1.40672">
        <ele>140.00915</ele>
        <time>2009-09-02T14:33:51Z</time>
      </trkpt>
      <trkpt lat="49.22233" lon="1.40648">
        <ele>139.04785</ele>
        <time>2009-09-02T14:33:57Z</time>
      </trkpt>
      <trkpt lat="49.22241" lon="1.40636">
        <ele>138.56726</ele>
        <time>2009-09-02T14:34:00Z</time>
      </trkpt>
      <trkpt lat="49.22251" lon="1.40617">
        <ele>139.04785</ele>
        <time>2009-09-02T14:34:05Z</time>
      </trkpt>
      <trkpt lat="49.22266" lon="1.40589">
        <ele>138.56726</ele>
        <time>2009-09-02T14:34:11Z</time>
      </trkpt>
      <trkpt lat="49.22279" lon="1.40564">
        <ele>139.52844</ele>
        <time>2009-09-02T14:34:16Z</time>
      </trkpt>
      <trkpt lat="49.22285" lon="1.40554">
        <ele>139.04785</ele>
        <time>2009-09-02T14:34:18Z</time>
      </trkpt>
      <trkpt lat="49.22289" lon="1.40537">
        <ele>136.64465</ele>
        <time>2009-09-02T14:34:23Z</time>
      </trkpt>
      <trkpt lat="49.22287" lon="1.40535">
        <ele>135.6831</ele>
        <time>2009-09-02T14:34:24Z</time>
      </trkpt>
      <trkpt lat="49.22281" lon="1.40525">
        <ele>132.79931</ele>
        <time>2009-09-02T14:34:28Z</time>
      </trkpt>
      <trkpt lat="49.22282" lon="1.40504">
        <ele>131.35729</ele>
        <time>2009-09-02T14:34:35Z</time>
      </trkpt>
      <trkpt lat="49.22285" lon="1.4048">
        <ele>128.9541</ele>
        <time>2009-09-02T14:34:41Z</time>
      </trkpt>
      <trkpt lat="49.22289" lon="1.40458">
        <ele>128.9541</ele>
        <time>2009-09-02T14:34:47Z</time>
      </trkpt>
      <trkpt lat="49.22296" lon="1.40433">
        <ele>127.99255</ele>
        <time>2009-09-02T14:34:52Z</time>
      </trkpt>
      <trkpt lat="49.22298" lon="1.40423">
        <ele>123.66674</ele>
        <time>2009-09-02T14:34:56Z</time>
      </trkpt>
      <trkpt lat="49.22298" lon="1.40423">
        <ele>122.70544</ele>
        <time>2009-09-02T14:34:57Z</time>
      </trkpt>
      <trkpt lat="49.22286" lon="1.40423">
        <ele>117.41821</ele>
        <time>2009-09-02T14:35:02Z</time>
      </trkpt>
      <trkpt lat="49.22273" lon="1.40416">
        <ele>110.68884</ele>
        <time>2009-09-02T14:35:07Z</time>
      </trkpt>
      <trkpt lat="49.2227" lon="1.40407">
        <ele>110.20825</ele>
        <time>2009-09-02T14:35:11Z</time>
      </trkpt>
      <trkpt lat="49.22273" lon="1.40399">
        <ele>109.24694</ele>
        <time>2009-09-02T14:35:15Z</time>
      </trkpt>
      <trkpt lat="49.22275" lon="1.40375">
        <ele>102.99829</ele>
        <time>2009-09-02T14:35:21Z</time>
      </trkpt>
      <trkpt lat="49.22288" lon="1.40354">
        <ele>96.269287</ele>
        <time>2009-09-02T14:35:26Z</time>
      </trkpt>
      <trkpt lat="49.22301" lon="1.40344">
        <ele>92.904541</ele>
        <time>2009-09-02T14:35:30Z</time>
      </trkpt>
      <trkpt lat="49.22309" lon="1.40329">
        <ele>93.385131</ele>
        <time>2009-09-02T14:35:33Z</time>
      </trkpt>
      <trkpt lat="49.22321" lon="1.40317">
        <ele>96.269287</ele>
        <time>2009-09-02T14:35:38Z</time>
      </trkpt>
      <trkpt lat="49.2232" lon="1.40316">
        <ele>95.307739</ele>
        <time>2009-09-02T14:35:40Z</time>
      </trkpt>
      <trkpt lat="49.22311" lon="1.40308">
        <ele>90.981933</ele>
        <time>2009-09-02T14:35:45Z</time>
      </trkpt>
      <trkpt lat="49.22309" lon="1.40299">
        <ele>88.578735</ele>
        <time>2009-09-02T14:35:51Z</time>
      </trkpt>
      <trkpt lat="49.22311" lon="1.40299">
        <ele>89.059326</ele>
        <time>2009-09-02T14:35:53Z</time>
      </trkpt>
      <trkpt lat="49.22317" lon="1.40302">
        <ele>89.539917</ele>
        <time>2009-09-02T14:35:57Z</time>
      </trkpt>
      <trkpt lat="49.22324" lon="1.40299">
        <ele>87.617187</ele>
        <time>2009-09-02T14:36:17Z</time>
      </trkpt>
      <trkpt lat="49.22327" lon="1.40301">
        <ele>88.098022</ele>
        <time>2009-09-02T14:36:19Z</time>
      </trkpt>
      <trkpt lat="49.22336" lon="1.40292">
        <ele>90.501342</ele>
        <time>2009-09-02T14:36:23Z</time>
      </trkpt>
      <trkpt lat="49.22339" lon="1.40286">
        <ele>89.539917</ele>
        <time>2009-09-02T14:36:28Z</time>
      </trkpt>
      <trkpt lat="49.22335" lon="1.4028">
        <ele>84.252685</ele>
        <time>2009-09-02T14:36:33Z</time>
      </trkpt>
      <trkpt lat="49.22338" lon="1.40276">
        <ele>82.330078</ele>
        <time>2009-09-02T14:36:37Z</time>
      </trkpt>
      <trkpt lat="49.2234" lon="1.40275">
        <ele>80.888183</ele>
        <time>2009-09-02T14:36:39Z</time>
      </trkpt>
      <trkpt lat="49.22344" lon="1.40256">
        <ele>78.965454</ele>
        <time>2009-09-02T14:36:44Z</time>
      </trkpt>
      <trkpt lat="49.22348" lon="1.40233">
        <ele>72.236206</ele>
        <time>2009-09-02T14:36:51Z</time>
      </trkpt>
      <trkpt lat="49.22349" lon="1.40229">
        <ele>70.794189</ele>
        <time>2009-09-02T14:36:52Z</time>
      </trkpt>
      <trkpt lat="49.22356" lon="1.40216">
        <ele>65.98767</ele>
        <time>2009-09-02T14:36:56Z</time>
      </trkpt>
      <trkpt lat="49.22374" lon="1.40194">
        <ele>64.545654</ele>
        <time>2009-09-02T14:37:01Z</time>
      </trkpt>
      <trkpt lat="49.22381" lon="1.40189">
        <ele>61.18103</ele>
        <time>2009-09-02T14:37:04Z</time>
      </trkpt>
      <trkpt lat="49.22392" lon="1.40172">
        <ele>63.58435</ele>
        <time>2009-09-02T14:37:09Z</time>
      </trkpt>
      <trkpt lat="49.22414" lon="1.40154">
        <ele>63.58435</ele>
        <time>2009-09-02T14:37:15Z</time>
      </trkpt>
      <trkpt lat="49.22424" lon="1.40143">
        <ele>62.142334</ele>
        <time>2009-09-02T14:37:18Z</time>
      </trkpt>
      <trkpt lat="49.22432" lon="1.40134">
        <ele>55.413085</ele>
        <time>2009-09-02T14:37:23Z</time>
      </trkpt>
      <trkpt lat="49.22432" lon="1.40134">
        <ele>52.529174</ele>
        <time>2009-09-02T14:37:27Z</time>
      </trkpt>
      <trkpt lat="49.22436" lon="1.40136">
        <ele>49.645263</ele>
        <time>2009-09-02T14:37:36Z</time>
      </trkpt>
      <trkpt lat="49.22441" lon="1.4013">
        <ele>48.68396</ele>
        <time>2009-09-02T14:37:44Z</time>
      </trkpt>
      <trkpt lat="49.22453" lon="1.40125">
        <ele>47.241821</ele>
        <time>2009-09-02T14:37:49Z</time>
      </trkpt>
      <trkpt lat="49.22467" lon="1.40107">
        <ele>45.319213</ele>
        <time>2009-09-02T14:37:55Z</time>
      </trkpt>
      <trkpt lat="49.22489" lon="1.40092">
        <ele>47.722534</ele>
        <time>2009-09-02T14:38:00Z</time>
      </trkpt>
      <trkpt lat="49.22503" lon="1.40072">
        <ele>42.916015</ele>
        <time>2009-09-02T14:38:04Z</time>
      </trkpt>
      <trkpt lat="49.22516" lon="1.40046">
        <ele>35.706054</ele>
        <time>2009-09-02T14:38:08Z</time>
      </trkpt>
      <trkpt lat="49.22532" lon="1.40005">
        <ele>21.766967</ele>
        <time>2009-09-02T14:38:14Z</time>
      </trkpt>
      <trkpt lat="49.22539" lon="1.39977">
        <ele>16.479736</ele>
        <time>2009-09-02T14:38:17Z</time>
      </trkpt>
      <trkpt lat="49.22542" lon="1.39959">
        <ele>13.595825</ele>
        <time>2009-09-02T14:38:21Z</time>
      </trkpt>
      <trkpt lat="49.22532" lon="1.39952">
        <ele>12.634399</ele>
        <time>2009-09-02T14:38:25Z</time>
      </trkpt>
      <trkpt lat="49.22521" lon="1.39953">
        <ele>11.673217</ele>
        <time>2009-09-02T14:38:30Z</time>
      </trkpt>
      <trkpt lat="49.22518" lon="1.39964">
        <ele>11.673217</ele>
        <time>2009-09-02T14:38:33Z</time>
      </trkpt>
      <trkpt lat="49.22512" lon="1.39967">
        <ele>11.192504</ele>
        <time>2009-09-02T14:38:37Z</time>
      </trkpt>
      <trkpt lat="49.22506" lon="1.39963">
        <ele>12.153808</ele>
        <time>2009-09-02T14:38:43Z</time>
      </trkpt>
      <trkpt lat="49.22506" lon="1.3996">
        <ele>13.595825</ele>
        <time>2009-09-02T14:38:48Z</time>
      </trkpt>
      <trkpt lat="49.22502" lon="1.39959">
        <ele>17.921752</ele>
        <time>2009-09-02T14:38:53Z</time>
      </trkpt>
      <trkpt lat="49.22501" lon="1.39956">
        <ele>17.921752</ele>
        <time>2009-09-02T14:38:59Z</time>
      </trkpt>
      <trkpt lat="49.22505" lon="1.39959">
        <ele>17.441162</ele>
        <time>2009-09-02T14:39:05Z</time>
      </trkpt>
      <trkpt lat="49.22506" lon="1.3996">
        <ele>17.441162</ele>
        <time>2009-09-02T14:39:14Z</time>
      </trkpt>
      <trkpt lat="49.22506" lon="1.39958">
        <ele>19.84436</ele>
        <time>2009-09-02T14:39:19Z</time>
      </trkpt>
      <trkpt lat="49.22506" lon="1.39958">
        <ele>19.363769</ele>
        <time>2009-09-02T14:39:21Z</time>
      </trkpt>
      <trkpt lat="49.22505" lon="1.39958">
        <ele>19.84436</ele>
        <time>2009-09-02T14:39:28Z</time>
      </trkpt>
      <trkpt lat="49.22505" lon="1.39959">
        <ele>16.960449</ele>
        <time>2009-09-02T14:39:35Z</time>
      </trkpt>
      <trkpt lat="49.22505" lon="1.39959">
        <ele>20.324951</ele>
        <time>2009-09-02T14:39:41Z</time>
      </trkpt>
      <trkpt lat="49.22506" lon="1.3996">
        <ele>21.286377</ele>
        <time>2009-09-02T14:39:43Z</time>
      </trkpt>
      <trkpt lat="49.22508" lon="1.39962">
        <ele>22.247558</ele>
        <time>2009-09-02T14:39:45Z</time>
      </trkpt>
    </trkseg>
  </trk>
</gpx>